<?xml version="1.0" encoding="UTF-8" standalone="no" ?>
<gpx xmlns="http://www.topografix.com/GPX/1/1" xmlns:xsi="http://www.w3.org/2001/XMLSchema-instance" xsi:schemaLocation="http://www.topografix.com/GPX/1/1 http://www.topografix.com/GPX/1/1/gpx.xsd" version="1.1" creator="VisuGPX - https://www.visugpx.com">
  <metadata>
    <name>Balade du 1er janvier Les 3 termes</name>
    <desc><![CDATA[Balade du 1er Janvier dans l\'Estérel pour prendre l\'air après les agapes !
 ]]></desc>
  </metadata>
  <trk>
    <name><![CDATA[Balade du 1er janvier Les 3 termes_1]]></name>
    <trkseg>
      <trkpt lat="43.52088" lon="6.89806">
        <ele>100</ele>
        <time>2011-01-01T12:05:53Z</time>
      </trkpt>
      <trkpt lat="43.52065" lon="6.89785">
        <ele>98</ele>
        <time>2011-01-01T12:06:47Z</time>
      </trkpt>
      <trkpt lat="43.52058" lon="6.89778">
        <ele>98</ele>
        <time>2011-01-01T12:06:57Z</time>
      </trkpt>
      <trkpt lat="43.52054" lon="6.89775">
        <ele>98</ele>
        <time>2011-01-01T12:07:07Z</time>
      </trkpt>
      <trkpt lat="43.52049" lon="6.89772">
        <ele>98</ele>
        <time>2011-01-01T12:07:19Z</time>
      </trkpt>
      <trkpt lat="43.52044" lon="6.89764">
        <ele>98</ele>
        <time>2011-01-01T12:07:31Z</time>
      </trkpt>
      <trkpt lat="43.52043" lon="6.89761">
        <ele>98</ele>
        <time>2011-01-01T12:07:42Z</time>
      </trkpt>
      <trkpt lat="43.52043" lon="6.89759">
        <ele>98</ele>
        <time>2011-01-01T12:08:09Z</time>
      </trkpt>
      <trkpt lat="43.52042" lon="6.89756">
        <ele>98</ele>
        <time>2011-01-01T12:08:19Z</time>
      </trkpt>
      <trkpt lat="43.52039" lon="6.89752">
        <ele>98</ele>
        <time>2011-01-01T12:08:30Z</time>
      </trkpt>
      <trkpt lat="43.52037" lon="6.89747">
        <ele>98</ele>
        <time>2011-01-01T12:08:41Z</time>
      </trkpt>
      <trkpt lat="43.52033" lon="6.89736">
        <ele>98</ele>
        <time>2011-01-01T12:08:53Z</time>
      </trkpt>
      <trkpt lat="43.52031" lon="6.89726">
        <ele>98</ele>
        <time>2011-01-01T12:09:03Z</time>
      </trkpt>
      <trkpt lat="43.52026" lon="6.89717">
        <ele>98</ele>
        <time>2011-01-01T12:09:14Z</time>
      </trkpt>
      <trkpt lat="43.52022" lon="6.89709">
        <ele>98</ele>
        <time>2011-01-01T12:09:27Z</time>
      </trkpt>
      <trkpt lat="43.52018" lon="6.89706">
        <ele>98</ele>
        <time>2011-01-01T12:09:58Z</time>
      </trkpt>
      <trkpt lat="43.52011" lon="6.897">
        <ele>98</ele>
        <time>2011-01-01T12:10:08Z</time>
      </trkpt>
      <trkpt lat="43.52004" lon="6.89695">
        <ele>98</ele>
        <time>2011-01-01T12:10:18Z</time>
      </trkpt>
      <trkpt lat="43.51997" lon="6.89693">
        <ele>98</ele>
        <time>2011-01-01T12:10:28Z</time>
      </trkpt>
      <trkpt lat="43.51991" lon="6.89692">
        <ele>98</ele>
        <time>2011-01-01T12:10:38Z</time>
      </trkpt>
      <trkpt lat="43.51984" lon="6.89691">
        <ele>99</ele>
        <time>2011-01-01T12:10:51Z</time>
      </trkpt>
      <trkpt lat="43.51977" lon="6.89689">
        <ele>100</ele>
        <time>2011-01-01T12:11:02Z</time>
      </trkpt>
      <trkpt lat="43.51969" lon="6.89689">
        <ele>100</ele>
        <time>2011-01-01T12:11:12Z</time>
      </trkpt>
      <trkpt lat="43.51962" lon="6.89687">
        <ele>100</ele>
        <time>2011-01-01T12:11:22Z</time>
      </trkpt>
      <trkpt lat="43.51953" lon="6.89686">
        <ele>102</ele>
        <time>2011-01-01T12:11:32Z</time>
      </trkpt>
      <trkpt lat="43.51944" lon="6.89687">
        <ele>103</ele>
        <time>2011-01-01T12:11:42Z</time>
      </trkpt>
      <trkpt lat="43.51935" lon="6.89688">
        <ele>103</ele>
        <time>2011-01-01T12:11:52Z</time>
      </trkpt>
      <trkpt lat="43.51921" lon="6.8969">
        <ele>105</ele>
        <time>2011-01-01T12:12:04Z</time>
      </trkpt>
      <trkpt lat="43.51911" lon="6.89691">
        <ele>105</ele>
        <time>2011-01-01T12:12:15Z</time>
      </trkpt>
      <trkpt lat="43.51908" lon="6.89696">
        <ele>106</ele>
        <time>2011-01-01T12:12:25Z</time>
      </trkpt>
      <trkpt lat="43.519" lon="6.89698">
        <ele>106</ele>
        <time>2011-01-01T12:12:40Z</time>
      </trkpt>
      <trkpt lat="43.51889" lon="6.89703">
        <ele>106</ele>
        <time>2011-01-01T12:12:50Z</time>
      </trkpt>
      <trkpt lat="43.51885" lon="6.89706">
        <ele>108</ele>
        <time>2011-01-01T12:13:04Z</time>
      </trkpt>
      <trkpt lat="43.51875" lon="6.89706">
        <ele>108</ele>
        <time>2011-01-01T12:13:14Z</time>
      </trkpt>
      <trkpt lat="43.51865" lon="6.89701">
        <ele>109</ele>
        <time>2011-01-01T12:13:24Z</time>
      </trkpt>
      <trkpt lat="43.51859" lon="6.89692">
        <ele>109</ele>
        <time>2011-01-01T12:13:34Z</time>
      </trkpt>
      <trkpt lat="43.51853" lon="6.89682">
        <ele>111</ele>
        <time>2011-01-01T12:13:44Z</time>
      </trkpt>
      <trkpt lat="43.51847" lon="6.89674">
        <ele>111</ele>
        <time>2011-01-01T12:13:55Z</time>
      </trkpt>
      <trkpt lat="43.5184" lon="6.89667">
        <ele>112</ele>
        <time>2011-01-01T12:14:05Z</time>
      </trkpt>
      <trkpt lat="43.51831" lon="6.89661">
        <ele>113</ele>
        <time>2011-01-01T12:14:15Z</time>
      </trkpt>
      <trkpt lat="43.51823" lon="6.89656">
        <ele>113</ele>
        <time>2011-01-01T12:14:25Z</time>
      </trkpt>
      <trkpt lat="43.51815" lon="6.89649">
        <ele>113</ele>
        <time>2011-01-01T12:14:35Z</time>
      </trkpt>
      <trkpt lat="43.51809" lon="6.89638">
        <ele>113</ele>
        <time>2011-01-01T12:14:45Z</time>
      </trkpt>
      <trkpt lat="43.51804" lon="6.89627">
        <ele>113</ele>
        <time>2011-01-01T12:14:55Z</time>
      </trkpt>
      <trkpt lat="43.518" lon="6.89616">
        <ele>113</ele>
        <time>2011-01-01T12:15:05Z</time>
      </trkpt>
      <trkpt lat="43.51794" lon="6.89606">
        <ele>113</ele>
        <time>2011-01-01T12:15:15Z</time>
      </trkpt>
      <trkpt lat="43.51788" lon="6.89597">
        <ele>113</ele>
        <time>2011-01-01T12:15:25Z</time>
      </trkpt>
      <trkpt lat="43.5178" lon="6.89588">
        <ele>113</ele>
        <time>2011-01-01T12:15:35Z</time>
      </trkpt>
      <trkpt lat="43.51771" lon="6.89584">
        <ele>113</ele>
        <time>2011-01-01T12:15:45Z</time>
      </trkpt>
      <trkpt lat="43.51761" lon="6.89579">
        <ele>113</ele>
        <time>2011-01-01T12:15:56Z</time>
      </trkpt>
      <trkpt lat="43.51753" lon="6.89573">
        <ele>113</ele>
        <time>2011-01-01T12:16:06Z</time>
      </trkpt>
      <trkpt lat="43.51748" lon="6.89564">
        <ele>113</ele>
        <time>2011-01-01T12:16:16Z</time>
      </trkpt>
      <trkpt lat="43.51742" lon="6.89556">
        <ele>113</ele>
        <time>2011-01-01T12:16:26Z</time>
      </trkpt>
      <trkpt lat="43.51737" lon="6.89546">
        <ele>113</ele>
        <time>2011-01-01T12:16:36Z</time>
      </trkpt>
      <trkpt lat="43.51731" lon="6.89534">
        <ele>113</ele>
        <time>2011-01-01T12:16:47Z</time>
      </trkpt>
      <trkpt lat="43.51723" lon="6.89527">
        <ele>114</ele>
        <time>2011-01-01T12:16:57Z</time>
      </trkpt>
      <trkpt lat="43.51715" lon="6.89521">
        <ele>115</ele>
        <time>2011-01-01T12:17:07Z</time>
      </trkpt>
      <trkpt lat="43.51705" lon="6.89519">
        <ele>115</ele>
        <time>2011-01-01T12:17:17Z</time>
      </trkpt>
      <trkpt lat="43.51696" lon="6.89521">
        <ele>115</ele>
        <time>2011-01-01T12:17:27Z</time>
      </trkpt>
      <trkpt lat="43.51688" lon="6.89524">
        <ele>115</ele>
        <time>2011-01-01T12:17:37Z</time>
      </trkpt>
      <trkpt lat="43.51679" lon="6.89529">
        <ele>115</ele>
        <time>2011-01-01T12:17:47Z</time>
      </trkpt>
      <trkpt lat="43.51671" lon="6.89532">
        <ele>115</ele>
        <time>2011-01-01T12:17:57Z</time>
      </trkpt>
      <trkpt lat="43.51662" lon="6.89536">
        <ele>115</ele>
        <time>2011-01-01T12:18:07Z</time>
      </trkpt>
      <trkpt lat="43.51654" lon="6.89538">
        <ele>115</ele>
        <time>2011-01-01T12:18:17Z</time>
      </trkpt>
      <trkpt lat="43.51645" lon="6.89541">
        <ele>115</ele>
        <time>2011-01-01T12:18:27Z</time>
      </trkpt>
      <trkpt lat="43.51636" lon="6.89544">
        <ele>115</ele>
        <time>2011-01-01T12:18:37Z</time>
      </trkpt>
      <trkpt lat="43.51627" lon="6.89545">
        <ele>115</ele>
        <time>2011-01-01T12:18:47Z</time>
      </trkpt>
      <trkpt lat="43.51619" lon="6.89542">
        <ele>115</ele>
        <time>2011-01-01T12:18:57Z</time>
      </trkpt>
      <trkpt lat="43.51612" lon="6.89532">
        <ele>115</ele>
        <time>2011-01-01T12:19:08Z</time>
      </trkpt>
      <trkpt lat="43.51608" lon="6.89521">
        <ele>115</ele>
        <time>2011-01-01T12:19:18Z</time>
      </trkpt>
      <trkpt lat="43.51606" lon="6.89509">
        <ele>115</ele>
        <time>2011-01-01T12:19:28Z</time>
      </trkpt>
      <trkpt lat="43.51603" lon="6.89497">
        <ele>116</ele>
        <time>2011-01-01T12:19:38Z</time>
      </trkpt>
      <trkpt lat="43.51605" lon="6.89484">
        <ele>116</ele>
        <time>2011-01-01T12:19:48Z</time>
      </trkpt>
      <trkpt lat="43.51613" lon="6.89474">
        <ele>117</ele>
        <time>2011-01-01T12:19:58Z</time>
      </trkpt>
      <trkpt lat="43.5162" lon="6.89464">
        <ele>118</ele>
        <time>2011-01-01T12:20:09Z</time>
      </trkpt>
      <trkpt lat="43.51626" lon="6.89454">
        <ele>118</ele>
        <time>2011-01-01T12:20:19Z</time>
      </trkpt>
      <trkpt lat="43.5163" lon="6.89443">
        <ele>118</ele>
        <time>2011-01-01T12:20:29Z</time>
      </trkpt>
      <trkpt lat="43.51631" lon="6.89429">
        <ele>118</ele>
        <time>2011-01-01T12:20:39Z</time>
      </trkpt>
      <trkpt lat="43.51628" lon="6.89414">
        <ele>118</ele>
        <time>2011-01-01T12:20:50Z</time>
      </trkpt>
      <trkpt lat="43.51621" lon="6.89403">
        <ele>118</ele>
        <time>2011-01-01T12:21:00Z</time>
      </trkpt>
      <trkpt lat="43.51614" lon="6.89395">
        <ele>118</ele>
        <time>2011-01-01T12:21:10Z</time>
      </trkpt>
      <trkpt lat="43.51607" lon="6.89389">
        <ele>119</ele>
        <time>2011-01-01T12:21:20Z</time>
      </trkpt>
      <trkpt lat="43.51598" lon="6.89384">
        <ele>120</ele>
        <time>2011-01-01T12:21:31Z</time>
      </trkpt>
      <trkpt lat="43.5159" lon="6.89381">
        <ele>120</ele>
        <time>2011-01-01T12:21:41Z</time>
      </trkpt>
      <trkpt lat="43.51583" lon="6.89378">
        <ele>120</ele>
        <time>2011-01-01T12:21:52Z</time>
      </trkpt>
      <trkpt lat="43.51575" lon="6.89378">
        <ele>120</ele>
        <time>2011-01-01T12:22:02Z</time>
      </trkpt>
      <trkpt lat="43.51567" lon="6.89377">
        <ele>120</ele>
        <time>2011-01-01T12:22:14Z</time>
      </trkpt>
      <trkpt lat="43.51556" lon="6.89376">
        <ele>120</ele>
        <time>2011-01-01T12:22:25Z</time>
      </trkpt>
      <trkpt lat="43.51549" lon="6.89373">
        <ele>121</ele>
        <time>2011-01-01T12:22:35Z</time>
      </trkpt>
      <trkpt lat="43.51544" lon="6.89368">
        <ele>121</ele>
        <time>2011-01-01T12:22:46Z</time>
      </trkpt>
      <trkpt lat="43.51538" lon="6.89362">
        <ele>121</ele>
        <time>2011-01-01T12:22:56Z</time>
      </trkpt>
      <trkpt lat="43.51531" lon="6.89357">
        <ele>121</ele>
        <time>2011-01-01T12:23:06Z</time>
      </trkpt>
      <trkpt lat="43.51524" lon="6.89353">
        <ele>121</ele>
        <time>2011-01-01T12:23:17Z</time>
      </trkpt>
      <trkpt lat="43.51517" lon="6.8935">
        <ele>123</ele>
        <time>2011-01-01T12:23:27Z</time>
      </trkpt>
      <trkpt lat="43.51508" lon="6.89346">
        <ele>124</ele>
        <time>2011-01-01T12:23:39Z</time>
      </trkpt>
      <trkpt lat="43.51498" lon="6.89344">
        <ele>125</ele>
        <time>2011-01-01T12:23:50Z</time>
      </trkpt>
      <trkpt lat="43.51491" lon="6.89341">
        <ele>126</ele>
        <time>2011-01-01T12:24:00Z</time>
      </trkpt>
      <trkpt lat="43.51483" lon="6.8934">
        <ele>126</ele>
        <time>2011-01-01T12:24:11Z</time>
      </trkpt>
      <trkpt lat="43.51474" lon="6.89339">
        <ele>127</ele>
        <time>2011-01-01T12:24:23Z</time>
      </trkpt>
      <trkpt lat="43.51465" lon="6.89338">
        <ele>127</ele>
        <time>2011-01-01T12:24:34Z</time>
      </trkpt>
      <trkpt lat="43.51456" lon="6.89335">
        <ele>127</ele>
        <time>2011-01-01T12:24:44Z</time>
      </trkpt>
      <trkpt lat="43.51445" lon="6.89332">
        <ele>128</ele>
        <time>2011-01-01T12:24:56Z</time>
      </trkpt>
      <trkpt lat="43.51435" lon="6.89332">
        <ele>129</ele>
        <time>2011-01-01T12:25:07Z</time>
      </trkpt>
      <trkpt lat="43.51425" lon="6.89331">
        <ele>129</ele>
        <time>2011-01-01T12:25:19Z</time>
      </trkpt>
      <trkpt lat="43.51415" lon="6.89331">
        <ele>129</ele>
        <time>2011-01-01T12:25:30Z</time>
      </trkpt>
      <trkpt lat="43.51407" lon="6.89331">
        <ele>130</ele>
        <time>2011-01-01T12:25:40Z</time>
      </trkpt>
      <trkpt lat="43.51399" lon="6.8933">
        <ele>132</ele>
        <time>2011-01-01T12:25:50Z</time>
      </trkpt>
      <trkpt lat="43.51389" lon="6.89328">
        <ele>133</ele>
        <time>2011-01-01T12:26:05Z</time>
      </trkpt>
      <trkpt lat="43.51383" lon="6.89329">
        <ele>133</ele>
        <time>2011-01-01T12:26:17Z</time>
      </trkpt>
      <trkpt lat="43.51381" lon="6.89327">
        <ele>133</ele>
        <time>2011-01-01T12:26:30Z</time>
      </trkpt>
      <trkpt lat="43.51373" lon="6.89327">
        <ele>133</ele>
        <time>2011-01-01T12:26:43Z</time>
      </trkpt>
      <trkpt lat="43.51363" lon="6.89327">
        <ele>133</ele>
        <time>2011-01-01T12:26:55Z</time>
      </trkpt>
      <trkpt lat="43.51353" lon="6.89333">
        <ele>133</ele>
        <time>2011-01-01T12:27:05Z</time>
      </trkpt>
      <trkpt lat="43.51346" lon="6.89338">
        <ele>135</ele>
        <time>2011-01-01T12:27:15Z</time>
      </trkpt>
      <trkpt lat="43.51338" lon="6.89345">
        <ele>139</ele>
        <time>2011-01-01T12:27:25Z</time>
      </trkpt>
      <trkpt lat="43.51327" lon="6.89347">
        <ele>139</ele>
        <time>2011-01-01T12:27:35Z</time>
      </trkpt>
      <trkpt lat="43.51317" lon="6.89343">
        <ele>139</ele>
        <time>2011-01-01T12:27:45Z</time>
      </trkpt>
      <trkpt lat="43.51309" lon="6.89335">
        <ele>139</ele>
        <time>2011-01-01T12:27:55Z</time>
      </trkpt>
      <trkpt lat="43.51303" lon="6.89325">
        <ele>139</ele>
        <time>2011-01-01T12:28:06Z</time>
      </trkpt>
      <trkpt lat="43.51297" lon="6.89315">
        <ele>139</ele>
        <time>2011-01-01T12:28:18Z</time>
      </trkpt>
      <trkpt lat="43.51292" lon="6.89307">
        <ele>139</ele>
        <time>2011-01-01T12:28:28Z</time>
      </trkpt>
      <trkpt lat="43.51284" lon="6.89303">
        <ele>139</ele>
        <time>2011-01-01T12:28:38Z</time>
      </trkpt>
      <trkpt lat="43.51275" lon="6.893">
        <ele>139</ele>
        <time>2011-01-01T12:28:49Z</time>
      </trkpt>
      <trkpt lat="43.51267" lon="6.89296">
        <ele>139</ele>
        <time>2011-01-01T12:28:59Z</time>
      </trkpt>
      <trkpt lat="43.51259" lon="6.89291">
        <ele>139</ele>
        <time>2011-01-01T12:29:09Z</time>
      </trkpt>
      <trkpt lat="43.51252" lon="6.89284">
        <ele>140</ele>
        <time>2011-01-01T12:29:19Z</time>
      </trkpt>
      <trkpt lat="43.51246" lon="6.89277">
        <ele>140</ele>
        <time>2011-01-01T12:29:29Z</time>
      </trkpt>
      <trkpt lat="43.51239" lon="6.8927">
        <ele>141</ele>
        <time>2011-01-01T12:29:39Z</time>
      </trkpt>
      <trkpt lat="43.51231" lon="6.89264">
        <ele>143</ele>
        <time>2011-01-01T12:29:49Z</time>
      </trkpt>
      <trkpt lat="43.51222" lon="6.8926">
        <ele>143</ele>
        <time>2011-01-01T12:29:59Z</time>
      </trkpt>
      <trkpt lat="43.51215" lon="6.89254">
        <ele>143</ele>
        <time>2011-01-01T12:30:10Z</time>
      </trkpt>
      <trkpt lat="43.51209" lon="6.8925">
        <ele>145</ele>
        <time>2011-01-01T12:30:20Z</time>
      </trkpt>
      <trkpt lat="43.51202" lon="6.89247">
        <ele>146</ele>
        <time>2011-01-01T12:30:30Z</time>
      </trkpt>
      <trkpt lat="43.51193" lon="6.89245">
        <ele>147</ele>
        <time>2011-01-01T12:30:40Z</time>
      </trkpt>
      <trkpt lat="43.51185" lon="6.89243">
        <ele>148</ele>
        <time>2011-01-01T12:30:50Z</time>
      </trkpt>
      <trkpt lat="43.51177" lon="6.89243">
        <ele>149</ele>
        <time>2011-01-01T12:31:00Z</time>
      </trkpt>
      <trkpt lat="43.5117" lon="6.89243">
        <ele>149</ele>
        <time>2011-01-01T12:31:10Z</time>
      </trkpt>
      <trkpt lat="43.51162" lon="6.89243">
        <ele>149</ele>
        <time>2011-01-01T12:31:20Z</time>
      </trkpt>
      <trkpt lat="43.51154" lon="6.89242">
        <ele>149</ele>
        <time>2011-01-01T12:31:30Z</time>
      </trkpt>
      <trkpt lat="43.51147" lon="6.89242">
        <ele>150</ele>
        <time>2011-01-01T12:31:40Z</time>
      </trkpt>
      <trkpt lat="43.51139" lon="6.89242">
        <ele>150</ele>
        <time>2011-01-01T12:31:50Z</time>
      </trkpt>
      <trkpt lat="43.5113" lon="6.89245">
        <ele>150</ele>
        <time>2011-01-01T12:32:01Z</time>
      </trkpt>
      <trkpt lat="43.51122" lon="6.89247">
        <ele>150</ele>
        <time>2011-01-01T12:32:11Z</time>
      </trkpt>
      <trkpt lat="43.51113" lon="6.89247">
        <ele>150</ele>
        <time>2011-01-01T12:32:21Z</time>
      </trkpt>
      <trkpt lat="43.51104" lon="6.89246">
        <ele>150</ele>
        <time>2011-01-01T12:32:31Z</time>
      </trkpt>
      <trkpt lat="43.51096" lon="6.89243">
        <ele>150</ele>
        <time>2011-01-01T12:32:41Z</time>
      </trkpt>
      <trkpt lat="43.51086" lon="6.8924">
        <ele>150</ele>
        <time>2011-01-01T12:32:52Z</time>
      </trkpt>
      <trkpt lat="43.51078" lon="6.89236">
        <ele>150</ele>
        <time>2011-01-01T12:33:02Z</time>
      </trkpt>
      <trkpt lat="43.5107" lon="6.89232">
        <ele>150</ele>
        <time>2011-01-01T12:33:12Z</time>
      </trkpt>
      <trkpt lat="43.51063" lon="6.89227">
        <ele>151</ele>
        <time>2011-01-01T12:33:22Z</time>
      </trkpt>
      <trkpt lat="43.51056" lon="6.89222">
        <ele>152</ele>
        <time>2011-01-01T12:33:32Z</time>
      </trkpt>
      <trkpt lat="43.5105" lon="6.89216">
        <ele>154</ele>
        <time>2011-01-01T12:33:42Z</time>
      </trkpt>
      <trkpt lat="43.51042" lon="6.89209">
        <ele>156</ele>
        <time>2011-01-01T12:33:53Z</time>
      </trkpt>
      <trkpt lat="43.51036" lon="6.89203">
        <ele>157</ele>
        <time>2011-01-01T12:34:03Z</time>
      </trkpt>
      <trkpt lat="43.51027" lon="6.89198">
        <ele>157</ele>
        <time>2011-01-01T12:34:13Z</time>
      </trkpt>
      <trkpt lat="43.5102" lon="6.89192">
        <ele>157</ele>
        <time>2011-01-01T12:34:24Z</time>
      </trkpt>
      <trkpt lat="43.51013" lon="6.89186">
        <ele>159</ele>
        <time>2011-01-01T12:34:35Z</time>
      </trkpt>
      <trkpt lat="43.51006" lon="6.89181">
        <ele>160</ele>
        <time>2011-01-01T12:34:45Z</time>
      </trkpt>
      <trkpt lat="43.50997" lon="6.89176">
        <ele>161</ele>
        <time>2011-01-01T12:34:55Z</time>
      </trkpt>
      <trkpt lat="43.50989" lon="6.8917">
        <ele>161</ele>
        <time>2011-01-01T12:35:06Z</time>
      </trkpt>
      <trkpt lat="43.50982" lon="6.89165">
        <ele>161</ele>
        <time>2011-01-01T12:35:16Z</time>
      </trkpt>
      <trkpt lat="43.50975" lon="6.89162">
        <ele>163</ele>
        <time>2011-01-01T12:35:26Z</time>
      </trkpt>
      <trkpt lat="43.50967" lon="6.8916">
        <ele>164</ele>
        <time>2011-01-01T12:35:36Z</time>
      </trkpt>
      <trkpt lat="43.50956" lon="6.8916">
        <ele>164</ele>
        <time>2011-01-01T12:35:47Z</time>
      </trkpt>
      <trkpt lat="43.50949" lon="6.8916">
        <ele>164</ele>
        <time>2011-01-01T12:35:57Z</time>
      </trkpt>
      <trkpt lat="43.50943" lon="6.89159">
        <ele>164</ele>
        <time>2011-01-01T12:36:07Z</time>
      </trkpt>
      <trkpt lat="43.50934" lon="6.89161">
        <ele>165</ele>
        <time>2011-01-01T12:36:17Z</time>
      </trkpt>
      <trkpt lat="43.50926" lon="6.89163">
        <ele>165</ele>
        <time>2011-01-01T12:36:27Z</time>
      </trkpt>
      <trkpt lat="43.50918" lon="6.89162">
        <ele>172</ele>
        <time>2011-01-01T12:36:37Z</time>
      </trkpt>
      <trkpt lat="43.50909" lon="6.89162">
        <ele>174</ele>
        <time>2011-01-01T12:36:47Z</time>
      </trkpt>
      <trkpt lat="43.50901" lon="6.89158">
        <ele>174</ele>
        <time>2011-01-01T12:36:57Z</time>
      </trkpt>
      <trkpt lat="43.50895" lon="6.89155">
        <ele>173</ele>
        <time>2011-01-01T12:37:07Z</time>
      </trkpt>
      <trkpt lat="43.50888" lon="6.89149">
        <ele>173</ele>
        <time>2011-01-01T12:37:18Z</time>
      </trkpt>
      <trkpt lat="43.50883" lon="6.89143">
        <ele>173</ele>
        <time>2011-01-01T12:37:29Z</time>
      </trkpt>
      <trkpt lat="43.50876" lon="6.89137">
        <ele>173</ele>
        <time>2011-01-01T12:37:39Z</time>
      </trkpt>
      <trkpt lat="43.50871" lon="6.89129">
        <ele>173</ele>
        <time>2011-01-01T12:37:49Z</time>
      </trkpt>
      <trkpt lat="43.50867" lon="6.89121">
        <ele>173</ele>
        <time>2011-01-01T12:37:59Z</time>
      </trkpt>
      <trkpt lat="43.50864" lon="6.8911">
        <ele>172</ele>
        <time>2011-01-01T12:38:10Z</time>
      </trkpt>
      <trkpt lat="43.5086" lon="6.891">
        <ele>172</ele>
        <time>2011-01-01T12:38:20Z</time>
      </trkpt>
      <trkpt lat="43.50855" lon="6.89091">
        <ele>172</ele>
        <time>2011-01-01T12:38:30Z</time>
      </trkpt>
      <trkpt lat="43.50849" lon="6.89084">
        <ele>172</ele>
        <time>2011-01-01T12:38:40Z</time>
      </trkpt>
      <trkpt lat="43.50841" lon="6.89078">
        <ele>172</ele>
        <time>2011-01-01T12:38:50Z</time>
      </trkpt>
      <trkpt lat="43.50832" lon="6.89073">
        <ele>173</ele>
        <time>2011-01-01T12:39:01Z</time>
      </trkpt>
      <trkpt lat="43.50824" lon="6.89071">
        <ele>174</ele>
        <time>2011-01-01T12:39:11Z</time>
      </trkpt>
      <trkpt lat="43.50816" lon="6.89069">
        <ele>174</ele>
        <time>2011-01-01T12:39:21Z</time>
      </trkpt>
      <trkpt lat="43.50807" lon="6.89067">
        <ele>174</ele>
        <time>2011-01-01T12:39:31Z</time>
      </trkpt>
      <trkpt lat="43.508" lon="6.89065">
        <ele>174</ele>
        <time>2011-01-01T12:39:42Z</time>
      </trkpt>
      <trkpt lat="43.50793" lon="6.89064">
        <ele>175</ele>
        <time>2011-01-01T12:39:52Z</time>
      </trkpt>
      <trkpt lat="43.50785" lon="6.89063">
        <ele>176</ele>
        <time>2011-01-01T12:40:03Z</time>
      </trkpt>
      <trkpt lat="43.50777" lon="6.89063">
        <ele>178</ele>
        <time>2011-01-01T12:40:13Z</time>
      </trkpt>
      <trkpt lat="43.50769" lon="6.89064">
        <ele>183</ele>
        <time>2011-01-01T12:40:23Z</time>
      </trkpt>
      <trkpt lat="43.50759" lon="6.89063">
        <ele>189</ele>
        <time>2011-01-01T12:40:34Z</time>
      </trkpt>
      <trkpt lat="43.50752" lon="6.89062">
        <ele>189</ele>
        <time>2011-01-01T12:40:44Z</time>
      </trkpt>
      <trkpt lat="43.50742" lon="6.89057">
        <ele>189</ele>
        <time>2011-01-01T12:40:55Z</time>
      </trkpt>
      <trkpt lat="43.50736" lon="6.8905">
        <ele>189</ele>
        <time>2011-01-01T12:41:05Z</time>
      </trkpt>
      <trkpt lat="43.50729" lon="6.89043">
        <ele>188</ele>
        <time>2011-01-01T12:41:15Z</time>
      </trkpt>
      <trkpt lat="43.50724" lon="6.89033">
        <ele>188</ele>
        <time>2011-01-01T12:41:26Z</time>
      </trkpt>
      <trkpt lat="43.50717" lon="6.89028">
        <ele>188</ele>
        <time>2011-01-01T12:41:37Z</time>
      </trkpt>
      <trkpt lat="43.50711" lon="6.89025">
        <ele>189</ele>
        <time>2011-01-01T12:41:48Z</time>
      </trkpt>
      <trkpt lat="43.50707" lon="6.8902">
        <ele>189</ele>
        <time>2011-01-01T12:41:58Z</time>
      </trkpt>
      <trkpt lat="43.50702" lon="6.89016">
        <ele>189</ele>
        <time>2011-01-01T12:42:09Z</time>
      </trkpt>
      <trkpt lat="43.50694" lon="6.89015">
        <ele>189</ele>
        <time>2011-01-01T12:42:19Z</time>
      </trkpt>
      <trkpt lat="43.50687" lon="6.89011">
        <ele>189</ele>
        <time>2011-01-01T12:42:30Z</time>
      </trkpt>
      <trkpt lat="43.5068" lon="6.89008">
        <ele>189</ele>
        <time>2011-01-01T12:42:40Z</time>
      </trkpt>
      <trkpt lat="43.5067" lon="6.89003">
        <ele>189</ele>
        <time>2011-01-01T12:42:51Z</time>
      </trkpt>
      <trkpt lat="43.50662" lon="6.88999">
        <ele>189</ele>
        <time>2011-01-01T12:43:01Z</time>
      </trkpt>
      <trkpt lat="43.50652" lon="6.88992">
        <ele>189</ele>
        <time>2011-01-01T12:43:11Z</time>
      </trkpt>
      <trkpt lat="43.50645" lon="6.88983">
        <ele>191</ele>
        <time>2011-01-01T12:43:21Z</time>
      </trkpt>
      <trkpt lat="43.50642" lon="6.88973">
        <ele>192</ele>
        <time>2011-01-01T12:43:32Z</time>
      </trkpt>
      <trkpt lat="43.50641" lon="6.88959">
        <ele>195</ele>
        <time>2011-01-01T12:43:42Z</time>
      </trkpt>
      <trkpt lat="43.50644" lon="6.88947">
        <ele>197</ele>
        <time>2011-01-01T12:43:52Z</time>
      </trkpt>
      <trkpt lat="43.50648" lon="6.88937">
        <ele>198</ele>
        <time>2011-01-01T12:44:02Z</time>
      </trkpt>
      <trkpt lat="43.50656" lon="6.88928">
        <ele>199</ele>
        <time>2011-01-01T12:44:14Z</time>
      </trkpt>
      <trkpt lat="43.50654" lon="6.88925">
        <ele>200</ele>
        <time>2011-01-01T12:44:28Z</time>
      </trkpt>
      <trkpt lat="43.50656" lon="6.88923">
        <ele>200</ele>
        <time>2011-01-01T12:44:41Z</time>
      </trkpt>
      <trkpt lat="43.5066" lon="6.88914">
        <ele>201</ele>
        <time>2011-01-01T12:44:52Z</time>
      </trkpt>
      <trkpt lat="43.50665" lon="6.88908">
        <ele>202</ele>
        <time>2011-01-01T12:45:06Z</time>
      </trkpt>
      <trkpt lat="43.50668" lon="6.889">
        <ele>202</ele>
        <time>2011-01-01T12:45:16Z</time>
      </trkpt>
      <trkpt lat="43.50671" lon="6.88889">
        <ele>204</ele>
        <time>2011-01-01T12:45:26Z</time>
      </trkpt>
      <trkpt lat="43.5068" lon="6.88886">
        <ele>206</ele>
        <time>2011-01-01T12:45:37Z</time>
      </trkpt>
      <trkpt lat="43.50685" lon="6.8888">
        <ele>206</ele>
        <time>2011-01-01T12:45:48Z</time>
      </trkpt>
      <trkpt lat="43.5069" lon="6.88874">
        <ele>206</ele>
        <time>2011-01-01T12:45:58Z</time>
      </trkpt>
      <trkpt lat="43.50696" lon="6.88868">
        <ele>206</ele>
        <time>2011-01-01T12:46:09Z</time>
      </trkpt>
      <trkpt lat="43.507" lon="6.88862">
        <ele>206</ele>
        <time>2011-01-01T12:46:20Z</time>
      </trkpt>
      <trkpt lat="43.50705" lon="6.88856">
        <ele>206</ele>
        <time>2011-01-01T12:46:30Z</time>
      </trkpt>
      <trkpt lat="43.50709" lon="6.88847">
        <ele>207</ele>
        <time>2011-01-01T12:46:40Z</time>
      </trkpt>
      <trkpt lat="43.50712" lon="6.88838">
        <ele>208</ele>
        <time>2011-01-01T12:46:50Z</time>
      </trkpt>
      <trkpt lat="43.50713" lon="6.88832">
        <ele>209</ele>
        <time>2011-01-01T12:47:06Z</time>
      </trkpt>
      <trkpt lat="43.50715" lon="6.88831">
        <ele>209</ele>
        <time>2011-01-01T12:47:16Z</time>
      </trkpt>
      <trkpt lat="43.50716" lon="6.8883">
        <ele>210</ele>
        <time>2011-01-01T12:47:47Z</time>
      </trkpt>
      <trkpt lat="43.50716" lon="6.88832">
        <ele>212</ele>
        <time>2011-01-01T12:48:44Z</time>
      </trkpt>
      <trkpt lat="43.50714" lon="6.88831">
        <ele>213</ele>
        <time>2011-01-01T12:48:58Z</time>
      </trkpt>
      <trkpt lat="43.50713" lon="6.88831">
        <ele>214</ele>
        <time>2011-01-01T12:49:29Z</time>
      </trkpt>
      <trkpt lat="43.50712" lon="6.88828">
        <ele>214</ele>
        <time>2011-01-01T12:49:42Z</time>
      </trkpt>
      <trkpt lat="43.50709" lon="6.88819">
        <ele>215</ele>
        <time>2011-01-01T12:49:53Z</time>
      </trkpt>
      <trkpt lat="43.50704" lon="6.88811">
        <ele>216</ele>
        <time>2011-01-01T12:50:03Z</time>
      </trkpt>
      <trkpt lat="43.50697" lon="6.88804">
        <ele>218</ele>
        <time>2011-01-01T12:50:14Z</time>
      </trkpt>
      <trkpt lat="43.5069" lon="6.888">
        <ele>218</ele>
        <time>2011-01-01T12:50:24Z</time>
      </trkpt>
      <trkpt lat="43.50683" lon="6.88798">
        <ele>219</ele>
        <time>2011-01-01T12:50:34Z</time>
      </trkpt>
      <trkpt lat="43.50676" lon="6.88797">
        <ele>220</ele>
        <time>2011-01-01T12:50:44Z</time>
      </trkpt>
      <trkpt lat="43.50668" lon="6.88797">
        <ele>222</ele>
        <time>2011-01-01T12:50:54Z</time>
      </trkpt>
      <trkpt lat="43.5066" lon="6.88798">
        <ele>222</ele>
        <time>2011-01-01T12:51:04Z</time>
      </trkpt>
      <trkpt lat="43.50652" lon="6.88797">
        <ele>222</ele>
        <time>2011-01-01T12:51:14Z</time>
      </trkpt>
      <trkpt lat="43.50644" lon="6.88795">
        <ele>222</ele>
        <time>2011-01-01T12:51:24Z</time>
      </trkpt>
      <trkpt lat="43.50636" lon="6.88792">
        <ele>223</ele>
        <time>2011-01-01T12:51:34Z</time>
      </trkpt>
      <trkpt lat="43.50629" lon="6.88789">
        <ele>224</ele>
        <time>2011-01-01T12:51:44Z</time>
      </trkpt>
      <trkpt lat="43.50621" lon="6.88787">
        <ele>226</ele>
        <time>2011-01-01T12:51:54Z</time>
      </trkpt>
      <trkpt lat="43.50614" lon="6.88788">
        <ele>228</ele>
        <time>2011-01-01T12:52:04Z</time>
      </trkpt>
      <trkpt lat="43.50606" lon="6.8879">
        <ele>228</ele>
        <time>2011-01-01T12:52:14Z</time>
      </trkpt>
      <trkpt lat="43.50599" lon="6.88794">
        <ele>228</ele>
        <time>2011-01-01T12:52:24Z</time>
      </trkpt>
      <trkpt lat="43.50592" lon="6.88799">
        <ele>228</ele>
        <time>2011-01-01T12:52:34Z</time>
      </trkpt>
      <trkpt lat="43.50585" lon="6.88804">
        <ele>228</ele>
        <time>2011-01-01T12:52:44Z</time>
      </trkpt>
      <trkpt lat="43.50578" lon="6.88806">
        <ele>228</ele>
        <time>2011-01-01T12:52:54Z</time>
      </trkpt>
      <trkpt lat="43.5057" lon="6.88808">
        <ele>228</ele>
        <time>2011-01-01T12:53:04Z</time>
      </trkpt>
      <trkpt lat="43.50562" lon="6.88809">
        <ele>228</ele>
        <time>2011-01-01T12:53:14Z</time>
      </trkpt>
      <trkpt lat="43.50555" lon="6.88808">
        <ele>228</ele>
        <time>2011-01-01T12:53:24Z</time>
      </trkpt>
      <trkpt lat="43.50547" lon="6.88806">
        <ele>229</ele>
        <time>2011-01-01T12:53:34Z</time>
      </trkpt>
      <trkpt lat="43.50539" lon="6.88802">
        <ele>231</ele>
        <time>2011-01-01T12:53:44Z</time>
      </trkpt>
      <trkpt lat="43.50532" lon="6.88799">
        <ele>233</ele>
        <time>2011-01-01T12:53:55Z</time>
      </trkpt>
      <trkpt lat="43.50526" lon="6.88796">
        <ele>235</ele>
        <time>2011-01-01T12:54:05Z</time>
      </trkpt>
      <trkpt lat="43.50518" lon="6.88794">
        <ele>237</ele>
        <time>2011-01-01T12:54:15Z</time>
      </trkpt>
      <trkpt lat="43.50511" lon="6.88792">
        <ele>237</ele>
        <time>2011-01-01T12:54:25Z</time>
      </trkpt>
      <trkpt lat="43.50503" lon="6.88791">
        <ele>238</ele>
        <time>2011-01-01T12:54:35Z</time>
      </trkpt>
      <trkpt lat="43.50496" lon="6.88789">
        <ele>239</ele>
        <time>2011-01-01T12:54:45Z</time>
      </trkpt>
      <trkpt lat="43.50489" lon="6.88786">
        <ele>240</ele>
        <time>2011-01-01T12:54:55Z</time>
      </trkpt>
      <trkpt lat="43.50482" lon="6.88782">
        <ele>241</ele>
        <time>2011-01-01T12:55:05Z</time>
      </trkpt>
      <trkpt lat="43.50475" lon="6.88778">
        <ele>242</ele>
        <time>2011-01-01T12:55:15Z</time>
      </trkpt>
      <trkpt lat="43.5047" lon="6.88775">
        <ele>243</ele>
        <time>2011-01-01T12:55:25Z</time>
      </trkpt>
      <trkpt lat="43.50463" lon="6.88772">
        <ele>244</ele>
        <time>2011-01-01T12:55:35Z</time>
      </trkpt>
      <trkpt lat="43.50456" lon="6.88771">
        <ele>246</ele>
        <time>2011-01-01T12:55:45Z</time>
      </trkpt>
      <trkpt lat="43.50449" lon="6.88771">
        <ele>247</ele>
        <time>2011-01-01T12:55:55Z</time>
      </trkpt>
      <trkpt lat="43.50443" lon="6.88773">
        <ele>248</ele>
        <time>2011-01-01T12:56:05Z</time>
      </trkpt>
      <trkpt lat="43.50436" lon="6.88778">
        <ele>248</ele>
        <time>2011-01-01T12:56:16Z</time>
      </trkpt>
      <trkpt lat="43.50431" lon="6.88785">
        <ele>251</ele>
        <time>2011-01-01T12:56:26Z</time>
      </trkpt>
      <trkpt lat="43.50424" lon="6.88792">
        <ele>252</ele>
        <time>2011-01-01T12:56:37Z</time>
      </trkpt>
      <trkpt lat="43.50418" lon="6.88803">
        <ele>262</ele>
        <time>2011-01-01T12:56:47Z</time>
      </trkpt>
      <trkpt lat="43.50412" lon="6.88809">
        <ele>263</ele>
        <time>2011-01-01T12:56:57Z</time>
      </trkpt>
      <trkpt lat="43.50406" lon="6.88814">
        <ele>263</ele>
        <time>2011-01-01T12:57:07Z</time>
      </trkpt>
      <trkpt lat="43.50399" lon="6.88818">
        <ele>263</ele>
        <time>2011-01-01T12:57:17Z</time>
      </trkpt>
      <trkpt lat="43.50392" lon="6.88822">
        <ele>263</ele>
        <time>2011-01-01T12:57:27Z</time>
      </trkpt>
      <trkpt lat="43.50385" lon="6.88824">
        <ele>263</ele>
        <time>2011-01-01T12:57:37Z</time>
      </trkpt>
      <trkpt lat="43.50378" lon="6.88827">
        <ele>264</ele>
        <time>2011-01-01T12:57:47Z</time>
      </trkpt>
      <trkpt lat="43.5037" lon="6.8883">
        <ele>267</ele>
        <time>2011-01-01T12:57:57Z</time>
      </trkpt>
      <trkpt lat="43.50362" lon="6.88833">
        <ele>267</ele>
        <time>2011-01-01T12:58:07Z</time>
      </trkpt>
      <trkpt lat="43.50355" lon="6.8884">
        <ele>267</ele>
        <time>2011-01-01T12:58:17Z</time>
      </trkpt>
      <trkpt lat="43.50349" lon="6.88847">
        <ele>267</ele>
        <time>2011-01-01T12:58:27Z</time>
      </trkpt>
      <trkpt lat="43.50341" lon="6.88852">
        <ele>267</ele>
        <time>2011-01-01T12:58:37Z</time>
      </trkpt>
      <trkpt lat="43.50333" lon="6.88857">
        <ele>267</ele>
        <time>2011-01-01T12:58:47Z</time>
      </trkpt>
      <trkpt lat="43.50325" lon="6.88859">
        <ele>267</ele>
        <time>2011-01-01T12:58:57Z</time>
      </trkpt>
      <trkpt lat="43.50318" lon="6.88853">
        <ele>267</ele>
        <time>2011-01-01T12:59:08Z</time>
      </trkpt>
      <trkpt lat="43.50315" lon="6.88844">
        <ele>265</ele>
        <time>2011-01-01T12:59:18Z</time>
      </trkpt>
      <trkpt lat="43.50315" lon="6.88833">
        <ele>265</ele>
        <time>2011-01-01T12:59:28Z</time>
      </trkpt>
      <trkpt lat="43.50316" lon="6.88827">
        <ele>265</ele>
        <time>2011-01-01T12:59:52Z</time>
      </trkpt>
      <trkpt lat="43.50319" lon="6.88815">
        <ele>265</ele>
        <time>2011-01-01T13:00:02Z</time>
      </trkpt>
      <trkpt lat="43.5032" lon="6.88804">
        <ele>267</ele>
        <time>2011-01-01T13:00:12Z</time>
      </trkpt>
      <trkpt lat="43.5032" lon="6.88793">
        <ele>267</ele>
        <time>2011-01-01T13:00:22Z</time>
      </trkpt>
      <trkpt lat="43.5032" lon="6.88783">
        <ele>267</ele>
        <time>2011-01-01T13:00:32Z</time>
      </trkpt>
      <trkpt lat="43.5032" lon="6.88773">
        <ele>267</ele>
        <time>2011-01-01T13:00:42Z</time>
      </trkpt>
      <trkpt lat="43.50317" lon="6.88763">
        <ele>267</ele>
        <time>2011-01-01T13:00:52Z</time>
      </trkpt>
      <trkpt lat="43.50312" lon="6.88754">
        <ele>268</ele>
        <time>2011-01-01T13:01:04Z</time>
      </trkpt>
      <trkpt lat="43.50309" lon="6.8875">
        <ele>268</ele>
        <time>2011-01-01T13:01:14Z</time>
      </trkpt>
      <trkpt lat="43.50305" lon="6.88744">
        <ele>269</ele>
        <time>2011-01-01T13:01:25Z</time>
      </trkpt>
      <trkpt lat="43.50299" lon="6.88736">
        <ele>270</ele>
        <time>2011-01-01T13:01:35Z</time>
      </trkpt>
      <trkpt lat="43.50295" lon="6.88728">
        <ele>271</ele>
        <time>2011-01-01T13:01:45Z</time>
      </trkpt>
      <trkpt lat="43.5029" lon="6.88721">
        <ele>272</ele>
        <time>2011-01-01T13:01:56Z</time>
      </trkpt>
      <trkpt lat="43.50285" lon="6.88714">
        <ele>272</ele>
        <time>2011-01-01T13:02:07Z</time>
      </trkpt>
      <trkpt lat="43.50279" lon="6.88708">
        <ele>272</ele>
        <time>2011-01-01T13:02:19Z</time>
      </trkpt>
      <trkpt lat="43.50274" lon="6.88704">
        <ele>272</ele>
        <time>2011-01-01T13:02:31Z</time>
      </trkpt>
      <trkpt lat="43.50267" lon="6.88692">
        <ele>274</ele>
        <time>2011-01-01T13:02:44Z</time>
      </trkpt>
      <trkpt lat="43.50265" lon="6.88683">
        <ele>276</ele>
        <time>2011-01-01T13:02:55Z</time>
      </trkpt>
      <trkpt lat="43.50266" lon="6.88676">
        <ele>277</ele>
        <time>2011-01-01T13:03:05Z</time>
      </trkpt>
      <trkpt lat="43.50269" lon="6.88672">
        <ele>277</ele>
        <time>2011-01-01T13:03:16Z</time>
      </trkpt>
      <trkpt lat="43.50275" lon="6.88668">
        <ele>278</ele>
        <time>2011-01-01T13:03:26Z</time>
      </trkpt>
      <trkpt lat="43.50282" lon="6.88661">
        <ele>278</ele>
        <time>2011-01-01T13:03:42Z</time>
      </trkpt>
      <trkpt lat="43.50287" lon="6.88657">
        <ele>278</ele>
        <time>2011-01-01T13:03:54Z</time>
      </trkpt>
      <trkpt lat="43.50289" lon="6.88656">
        <ele>278</ele>
        <time>2011-01-01T13:04:04Z</time>
      </trkpt>
      <trkpt lat="43.50297" lon="6.88651">
        <ele>278</ele>
        <time>2011-01-01T13:04:14Z</time>
      </trkpt>
      <trkpt lat="43.50303" lon="6.88648">
        <ele>279</ele>
        <time>2011-01-01T13:04:26Z</time>
      </trkpt>
      <trkpt lat="43.5031" lon="6.88643">
        <ele>279</ele>
        <time>2011-01-01T13:04:37Z</time>
      </trkpt>
      <trkpt lat="43.50315" lon="6.88639">
        <ele>279</ele>
        <time>2011-01-01T13:04:48Z</time>
      </trkpt>
      <trkpt lat="43.5032" lon="6.88632">
        <ele>279</ele>
        <time>2011-01-01T13:05:00Z</time>
      </trkpt>
      <trkpt lat="43.50323" lon="6.88624">
        <ele>279</ele>
        <time>2011-01-01T13:05:12Z</time>
      </trkpt>
      <trkpt lat="43.50325" lon="6.88618">
        <ele>279</ele>
        <time>2011-01-01T13:05:23Z</time>
      </trkpt>
      <trkpt lat="43.50325" lon="6.88609">
        <ele>279</ele>
        <time>2011-01-01T13:05:34Z</time>
      </trkpt>
      <trkpt lat="43.50325" lon="6.88603">
        <ele>280</ele>
        <time>2011-01-01T13:05:56Z</time>
      </trkpt>
      <trkpt lat="43.50324" lon="6.88601">
        <ele>280</ele>
        <time>2011-01-01T13:06:11Z</time>
      </trkpt>
      <trkpt lat="43.50323" lon="6.88592">
        <ele>280</ele>
        <time>2011-01-01T13:06:22Z</time>
      </trkpt>
      <trkpt lat="43.50319" lon="6.88584">
        <ele>280</ele>
        <time>2011-01-01T13:06:32Z</time>
      </trkpt>
      <trkpt lat="43.50316" lon="6.88577">
        <ele>281</ele>
        <time>2011-01-01T13:06:42Z</time>
      </trkpt>
      <trkpt lat="43.50313" lon="6.88569">
        <ele>282</ele>
        <time>2011-01-01T13:06:53Z</time>
      </trkpt>
      <trkpt lat="43.5031" lon="6.88561">
        <ele>282</ele>
        <time>2011-01-01T13:07:03Z</time>
      </trkpt>
      <trkpt lat="43.50307" lon="6.88556">
        <ele>285</ele>
        <time>2011-01-01T13:07:23Z</time>
      </trkpt>
      <trkpt lat="43.50307" lon="6.88547">
        <ele>285</ele>
        <time>2011-01-01T13:07:33Z</time>
      </trkpt>
      <trkpt lat="43.50309" lon="6.88538">
        <ele>285</ele>
        <time>2011-01-01T13:07:44Z</time>
      </trkpt>
      <trkpt lat="43.50309" lon="6.88528">
        <ele>285</ele>
        <time>2011-01-01T13:07:54Z</time>
      </trkpt>
      <trkpt lat="43.50307" lon="6.88515">
        <ele>286</ele>
        <time>2011-01-01T13:08:05Z</time>
      </trkpt>
      <trkpt lat="43.50304" lon="6.88505">
        <ele>286</ele>
        <time>2011-01-01T13:08:15Z</time>
      </trkpt>
      <trkpt lat="43.50301" lon="6.88495">
        <ele>286</ele>
        <time>2011-01-01T13:08:25Z</time>
      </trkpt>
      <trkpt lat="43.50295" lon="6.88487">
        <ele>288</ele>
        <time>2011-01-01T13:08:35Z</time>
      </trkpt>
      <trkpt lat="43.5029" lon="6.88479">
        <ele>288</ele>
        <time>2011-01-01T13:08:45Z</time>
      </trkpt>
      <trkpt lat="43.50284" lon="6.8847">
        <ele>289</ele>
        <time>2011-01-01T13:08:56Z</time>
      </trkpt>
      <trkpt lat="43.50279" lon="6.8846">
        <ele>290</ele>
        <time>2011-01-01T13:09:06Z</time>
      </trkpt>
      <trkpt lat="43.50275" lon="6.8845">
        <ele>291</ele>
        <time>2011-01-01T13:09:16Z</time>
      </trkpt>
      <trkpt lat="43.50273" lon="6.8844">
        <ele>292</ele>
        <time>2011-01-01T13:09:26Z</time>
      </trkpt>
      <trkpt lat="43.50272" lon="6.88431">
        <ele>292</ele>
        <time>2011-01-01T13:09:36Z</time>
      </trkpt>
      <trkpt lat="43.5027" lon="6.8842">
        <ele>292</ele>
        <time>2011-01-01T13:09:47Z</time>
      </trkpt>
      <trkpt lat="43.50264" lon="6.88412">
        <ele>293</ele>
        <time>2011-01-01T13:09:58Z</time>
      </trkpt>
      <trkpt lat="43.50259" lon="6.88405">
        <ele>296</ele>
        <time>2011-01-01T13:10:09Z</time>
      </trkpt>
      <trkpt lat="43.50257" lon="6.88398">
        <ele>296</ele>
        <time>2011-01-01T13:10:26Z</time>
      </trkpt>
      <trkpt lat="43.50254" lon="6.8839">
        <ele>296</ele>
        <time>2011-01-01T13:10:38Z</time>
      </trkpt>
      <trkpt lat="43.5025" lon="6.88386">
        <ele>296</ele>
        <time>2011-01-01T13:10:48Z</time>
      </trkpt>
      <trkpt lat="43.50251" lon="6.88382">
        <ele>296</ele>
        <time>2011-01-01T13:10:58Z</time>
      </trkpt>
      <trkpt lat="43.50251" lon="6.88372">
        <ele>296</ele>
        <time>2011-01-01T13:11:08Z</time>
      </trkpt>
      <trkpt lat="43.50249" lon="6.88363">
        <ele>296</ele>
        <time>2011-01-01T13:11:18Z</time>
      </trkpt>
      <trkpt lat="43.50241" lon="6.88355">
        <ele>296</ele>
        <time>2011-01-01T13:11:30Z</time>
      </trkpt>
      <trkpt lat="43.50236" lon="6.88354">
        <ele>296</ele>
        <time>2011-01-01T13:11:43Z</time>
      </trkpt>
      <trkpt lat="43.50237" lon="6.88353">
        <ele>298</ele>
        <time>2011-01-01T13:12:09Z</time>
      </trkpt>
      <trkpt lat="43.5024" lon="6.88341">
        <ele>291</ele>
        <time>2011-01-01T13:12:20Z</time>
      </trkpt>
      <trkpt lat="43.50237" lon="6.88348">
        <ele>287</ele>
        <time>2011-01-01T13:12:31Z</time>
      </trkpt>
      <trkpt lat="43.50239" lon="6.88359">
        <ele>294</ele>
        <time>2011-01-01T13:12:43Z</time>
      </trkpt>
      <trkpt lat="43.50239" lon="6.88352">
        <ele>294</ele>
        <time>2011-01-01T13:12:53Z</time>
      </trkpt>
      <trkpt lat="43.5024" lon="6.88343">
        <ele>294</ele>
        <time>2011-01-01T13:13:03Z</time>
      </trkpt>
      <trkpt lat="43.50238" lon="6.88334">
        <ele>296</ele>
        <time>2011-01-01T13:13:13Z</time>
      </trkpt>
      <trkpt lat="43.50237" lon="6.88323">
        <ele>299</ele>
        <time>2011-01-01T13:13:25Z</time>
      </trkpt>
      <trkpt lat="43.50234" lon="6.88312">
        <ele>299</ele>
        <time>2011-01-01T13:13:37Z</time>
      </trkpt>
      <trkpt lat="43.50233" lon="6.88301">
        <ele>299</ele>
        <time>2011-01-01T13:13:49Z</time>
      </trkpt>
      <trkpt lat="43.5023" lon="6.88289">
        <ele>299</ele>
        <time>2011-01-01T13:14:01Z</time>
      </trkpt>
      <trkpt lat="43.50227" lon="6.88276">
        <ele>299</ele>
        <time>2011-01-01T13:14:13Z</time>
      </trkpt>
      <trkpt lat="43.50224" lon="6.88268">
        <ele>299</ele>
        <time>2011-01-01T13:14:23Z</time>
      </trkpt>
      <trkpt lat="43.50225" lon="6.88269">
        <ele>299</ele>
        <time>2011-01-01T13:14:37Z</time>
      </trkpt>
      <trkpt lat="43.50223" lon="6.88266">
        <ele>301</ele>
        <time>2011-01-01T13:14:49Z</time>
      </trkpt>
      <trkpt lat="43.50218" lon="6.88258">
        <ele>303</ele>
        <time>2011-01-01T13:14:59Z</time>
      </trkpt>
      <trkpt lat="43.50212" lon="6.88251">
        <ele>303</ele>
        <time>2011-01-01T13:15:10Z</time>
      </trkpt>
      <trkpt lat="43.50205" lon="6.88244">
        <ele>303</ele>
        <time>2011-01-01T13:15:20Z</time>
      </trkpt>
      <trkpt lat="43.502" lon="6.8824">
        <ele>303</ele>
        <time>2011-01-01T13:15:30Z</time>
      </trkpt>
      <trkpt lat="43.5019" lon="6.88238">
        <ele>303</ele>
        <time>2011-01-01T13:15:41Z</time>
      </trkpt>
      <trkpt lat="43.50182" lon="6.88236">
        <ele>305</ele>
        <time>2011-01-01T13:15:51Z</time>
      </trkpt>
      <trkpt lat="43.50174" lon="6.88233">
        <ele>305</ele>
        <time>2011-01-01T13:16:01Z</time>
      </trkpt>
      <trkpt lat="43.50167" lon="6.88228">
        <ele>305</ele>
        <time>2011-01-01T13:16:12Z</time>
      </trkpt>
      <trkpt lat="43.50161" lon="6.88221">
        <ele>305</ele>
        <time>2011-01-01T13:16:24Z</time>
      </trkpt>
      <trkpt lat="43.50157" lon="6.88215">
        <ele>305</ele>
        <time>2011-01-01T13:16:34Z</time>
      </trkpt>
      <trkpt lat="43.50153" lon="6.88207">
        <ele>305</ele>
        <time>2011-01-01T13:17:06Z</time>
      </trkpt>
      <trkpt lat="43.50151" lon="6.88204">
        <ele>305</ele>
        <time>2011-01-01T13:17:17Z</time>
      </trkpt>
      <trkpt lat="43.5015" lon="6.88198">
        <ele>305</ele>
        <time>2011-01-01T13:17:28Z</time>
      </trkpt>
      <trkpt lat="43.5015" lon="6.88197">
        <ele>305</ele>
        <time>2011-01-01T13:17:54Z</time>
      </trkpt>
      <trkpt lat="43.50151" lon="6.88198">
        <ele>305</ele>
        <time>2011-01-01T13:18:19Z</time>
      </trkpt>
      <trkpt lat="43.5015" lon="6.88197">
        <ele>305</ele>
        <time>2011-01-01T13:18:39Z</time>
      </trkpt>
      <trkpt lat="43.5015" lon="6.88188">
        <ele>305</ele>
        <time>2011-01-01T13:18:50Z</time>
      </trkpt>
      <trkpt lat="43.50147" lon="6.88177">
        <ele>304</ele>
        <time>2011-01-01T13:19:02Z</time>
      </trkpt>
      <trkpt lat="43.50142" lon="6.88166">
        <ele>304</ele>
        <time>2011-01-01T13:19:13Z</time>
      </trkpt>
      <trkpt lat="43.50138" lon="6.88162">
        <ele>304</ele>
        <time>2011-01-01T13:19:23Z</time>
      </trkpt>
      <trkpt lat="43.50133" lon="6.8816">
        <ele>304</ele>
        <time>2011-01-01T13:19:34Z</time>
      </trkpt>
      <trkpt lat="43.50127" lon="6.88155">
        <ele>307</ele>
        <time>2011-01-01T13:19:45Z</time>
      </trkpt>
      <trkpt lat="43.50124" lon="6.88151">
        <ele>307</ele>
        <time>2011-01-01T13:19:56Z</time>
      </trkpt>
      <trkpt lat="43.50121" lon="6.88146">
        <ele>307</ele>
        <time>2011-01-01T13:20:07Z</time>
      </trkpt>
      <trkpt lat="43.5012" lon="6.88141">
        <ele>307</ele>
        <time>2011-01-01T13:20:18Z</time>
      </trkpt>
      <trkpt lat="43.50119" lon="6.88135">
        <ele>307</ele>
        <time>2011-01-01T13:20:33Z</time>
      </trkpt>
      <trkpt lat="43.5012" lon="6.8813">
        <ele>306</ele>
        <time>2011-01-01T13:20:43Z</time>
      </trkpt>
      <trkpt lat="43.50121" lon="6.88121">
        <ele>305</ele>
        <time>2011-01-01T13:21:01Z</time>
      </trkpt>
      <trkpt lat="43.50119" lon="6.8812">
        <ele>305</ele>
        <time>2011-01-01T13:21:15Z</time>
      </trkpt>
      <trkpt lat="43.50121" lon="6.88119">
        <ele>305</ele>
        <time>2011-01-01T13:21:30Z</time>
      </trkpt>
      <trkpt lat="43.50124" lon="6.88109">
        <ele>305</ele>
        <time>2011-01-01T13:21:41Z</time>
      </trkpt>
      <trkpt lat="43.50128" lon="6.88099">
        <ele>305</ele>
        <time>2011-01-01T13:21:51Z</time>
      </trkpt>
      <trkpt lat="43.50132" lon="6.88091">
        <ele>304</ele>
        <time>2011-01-01T13:22:01Z</time>
      </trkpt>
      <trkpt lat="43.5013" lon="6.88088">
        <ele>303</ele>
        <time>2011-01-01T13:22:15Z</time>
      </trkpt>
      <trkpt lat="43.50129" lon="6.88088">
        <ele>303</ele>
        <time>2011-01-01T13:22:30Z</time>
      </trkpt>
      <trkpt lat="43.50126" lon="6.88089">
        <ele>303</ele>
        <time>2011-01-01T13:22:40Z</time>
      </trkpt>
      <trkpt lat="43.50121" lon="6.88094">
        <ele>303</ele>
        <time>2011-01-01T13:22:59Z</time>
      </trkpt>
      <trkpt lat="43.5012" lon="6.88097">
        <ele>303</ele>
        <time>2011-01-01T13:23:10Z</time>
      </trkpt>
      <trkpt lat="43.50121" lon="6.881">
        <ele>303</ele>
        <time>2011-01-01T13:23:36Z</time>
      </trkpt>
      <trkpt lat="43.50119" lon="6.88107">
        <ele>303</ele>
        <time>2011-01-01T13:23:48Z</time>
      </trkpt>
      <trkpt lat="43.50119" lon="6.88114">
        <ele>303</ele>
        <time>2011-01-01T13:23:58Z</time>
      </trkpt>
      <trkpt lat="43.50115" lon="6.88122">
        <ele>303</ele>
        <time>2011-01-01T13:24:09Z</time>
      </trkpt>
      <trkpt lat="43.5011" lon="6.88129">
        <ele>303</ele>
        <time>2011-01-01T13:24:19Z</time>
      </trkpt>
      <trkpt lat="43.50108" lon="6.88134">
        <ele>303</ele>
        <time>2011-01-01T13:24:40Z</time>
      </trkpt>
      <trkpt lat="43.50104" lon="6.88136">
        <ele>303</ele>
        <time>2011-01-01T13:24:51Z</time>
      </trkpt>
      <trkpt lat="43.50105" lon="6.88138">
        <ele>303</ele>
        <time>2011-01-01T13:25:01Z</time>
      </trkpt>
      <trkpt lat="43.50103" lon="6.88138">
        <ele>302</ele>
        <time>2011-01-01T13:25:11Z</time>
      </trkpt>
      <trkpt lat="43.501" lon="6.88142">
        <ele>301</ele>
        <time>2011-01-01T13:25:23Z</time>
      </trkpt>
      <trkpt lat="43.50093" lon="6.88143">
        <ele>301</ele>
        <time>2011-01-01T13:25:34Z</time>
      </trkpt>
      <trkpt lat="43.5009" lon="6.88147">
        <ele>304</ele>
        <time>2011-01-01T13:25:47Z</time>
      </trkpt>
      <trkpt lat="43.50089" lon="6.8815">
        <ele>304</ele>
        <time>2011-01-01T13:25:57Z</time>
      </trkpt>
      <trkpt lat="43.50086" lon="6.88152">
        <ele>309</ele>
        <time>2011-01-01T13:26:17Z</time>
      </trkpt>
      <trkpt lat="43.50087" lon="6.88151">
        <ele>309</ele>
        <time>2011-01-01T13:26:36Z</time>
      </trkpt>
      <trkpt lat="43.50088" lon="6.88154">
        <ele>309</ele>
        <time>2011-01-01T13:26:46Z</time>
      </trkpt>
      <trkpt lat="43.50092" lon="6.88155">
        <ele>309</ele>
        <time>2011-01-01T13:26:56Z</time>
      </trkpt>
      <trkpt lat="43.50095" lon="6.88153">
        <ele>309</ele>
        <time>2011-01-01T13:27:10Z</time>
      </trkpt>
      <trkpt lat="43.50097" lon="6.88153">
        <ele>309</ele>
        <time>2011-01-01T13:27:20Z</time>
      </trkpt>
      <trkpt lat="43.50098" lon="6.88153">
        <ele>309</ele>
        <time>2011-01-01T13:27:40Z</time>
      </trkpt>
      <trkpt lat="43.50102" lon="6.88155">
        <ele>308</ele>
        <time>2011-01-01T13:27:50Z</time>
      </trkpt>
      <trkpt lat="43.50103" lon="6.88151">
        <ele>308</ele>
        <time>2011-01-01T13:28:05Z</time>
      </trkpt>
      <trkpt lat="43.50102" lon="6.88154">
        <ele>308</ele>
        <time>2011-01-01T13:28:16Z</time>
      </trkpt>
      <trkpt lat="43.50101" lon="6.88164">
        <ele>308</ele>
        <time>2011-01-01T13:28:26Z</time>
      </trkpt>
      <trkpt lat="43.50102" lon="6.88164">
        <ele>308</ele>
        <time>2011-01-01T13:28:52Z</time>
      </trkpt>
      <trkpt lat="43.50104" lon="6.88162">
        <ele>308</ele>
        <time>2011-01-01T13:29:06Z</time>
      </trkpt>
      <trkpt lat="43.50105" lon="6.88162">
        <ele>308</ele>
        <time>2011-01-01T13:29:44Z</time>
      </trkpt>
      <trkpt lat="43.50108" lon="6.88161">
        <ele>308</ele>
        <time>2011-01-01T13:29:56Z</time>
      </trkpt>
      <trkpt lat="43.50107" lon="6.88164">
        <ele>308</ele>
        <time>2011-01-01T13:30:08Z</time>
      </trkpt>
      <trkpt lat="43.50106" lon="6.88166">
        <ele>312</ele>
        <time>2011-01-01T13:30:19Z</time>
      </trkpt>
      <trkpt lat="43.50104" lon="6.88167">
        <ele>314</ele>
        <time>2011-01-01T13:30:30Z</time>
      </trkpt>
      <trkpt lat="43.501" lon="6.8816">
        <ele>314</ele>
        <time>2011-01-01T13:30:45Z</time>
      </trkpt>
      <trkpt lat="43.50102" lon="6.88159">
        <ele>314</ele>
        <time>2011-01-01T13:30:56Z</time>
      </trkpt>
      <trkpt lat="43.501" lon="6.88156">
        <ele>314</ele>
        <time>2011-01-01T13:31:06Z</time>
      </trkpt>
      <trkpt lat="43.50101" lon="6.88154">
        <ele>310</ele>
        <time>2011-01-01T13:31:18Z</time>
      </trkpt>
      <trkpt lat="43.50096" lon="6.88148">
        <ele>310</ele>
        <time>2011-01-01T13:31:31Z</time>
      </trkpt>
      <trkpt lat="43.50093" lon="6.88149">
        <ele>310</ele>
        <time>2011-01-01T13:31:43Z</time>
      </trkpt>
      <trkpt lat="43.50092" lon="6.88147">
        <ele>310</ele>
        <time>2011-01-01T13:31:53Z</time>
      </trkpt>
      <trkpt lat="43.50092" lon="6.88145">
        <ele>310</ele>
        <time>2011-01-01T13:32:08Z</time>
      </trkpt>
      <trkpt lat="43.50091" lon="6.88144">
        <ele>310</ele>
        <time>2011-01-01T13:32:52Z</time>
      </trkpt>
      <trkpt lat="43.5009" lon="6.88148">
        <ele>310</ele>
        <time>2011-01-01T13:33:04Z</time>
      </trkpt>
      <trkpt lat="43.5009" lon="6.88149">
        <ele>310</ele>
        <time>2011-01-01T13:33:14Z</time>
      </trkpt>
      <trkpt lat="43.5009" lon="6.88145">
        <ele>310</ele>
        <time>2011-01-01T13:33:35Z</time>
      </trkpt>
      <trkpt lat="43.50091" lon="6.88143">
        <ele>308</ele>
        <time>2011-01-01T13:33:53Z</time>
      </trkpt>
      <trkpt lat="43.50089" lon="6.88143">
        <ele>308</ele>
        <time>2011-01-01T13:34:10Z</time>
      </trkpt>
      <trkpt lat="43.50092" lon="6.88142">
        <ele>308</ele>
        <time>2011-01-01T13:34:22Z</time>
      </trkpt>
      <trkpt lat="43.50095" lon="6.88141">
        <ele>308</ele>
        <time>2011-01-01T13:34:35Z</time>
      </trkpt>
      <trkpt lat="43.50096" lon="6.88143">
        <ele>308</ele>
        <time>2011-01-01T13:34:57Z</time>
      </trkpt>
      <trkpt lat="43.50101" lon="6.88137">
        <ele>308</ele>
        <time>2011-01-01T13:35:07Z</time>
      </trkpt>
      <trkpt lat="43.50105" lon="6.88134">
        <ele>308</ele>
        <time>2011-01-01T13:35:25Z</time>
      </trkpt>
      <trkpt lat="43.5011" lon="6.88132">
        <ele>308</ele>
        <time>2011-01-01T13:35:36Z</time>
      </trkpt>
      <trkpt lat="43.50116" lon="6.88128">
        <ele>307</ele>
        <time>2011-01-01T13:35:47Z</time>
      </trkpt>
      <trkpt lat="43.50119" lon="6.8812">
        <ele>307</ele>
        <time>2011-01-01T13:35:58Z</time>
      </trkpt>
      <trkpt lat="43.50123" lon="6.88109">
        <ele>305</ele>
        <time>2011-01-01T13:36:08Z</time>
      </trkpt>
      <trkpt lat="43.50126" lon="6.881">
        <ele>304</ele>
        <time>2011-01-01T13:36:18Z</time>
      </trkpt>
      <trkpt lat="43.50129" lon="6.88095">
        <ele>303</ele>
        <time>2011-01-01T13:36:29Z</time>
      </trkpt>
      <trkpt lat="43.5013" lon="6.88091">
        <ele>303</ele>
        <time>2011-01-01T13:36:41Z</time>
      </trkpt>
      <trkpt lat="43.50129" lon="6.88096">
        <ele>303</ele>
        <time>2011-01-01T13:36:53Z</time>
      </trkpt>
      <trkpt lat="43.50126" lon="6.88102">
        <ele>303</ele>
        <time>2011-01-01T13:37:04Z</time>
      </trkpt>
      <trkpt lat="43.50124" lon="6.88108">
        <ele>304</ele>
        <time>2011-01-01T13:37:14Z</time>
      </trkpt>
      <trkpt lat="43.50123" lon="6.88118">
        <ele>305</ele>
        <time>2011-01-01T13:37:25Z</time>
      </trkpt>
      <trkpt lat="43.50122" lon="6.88126">
        <ele>305</ele>
        <time>2011-01-01T13:37:35Z</time>
      </trkpt>
      <trkpt lat="43.50122" lon="6.88134">
        <ele>305</ele>
        <time>2011-01-01T13:37:46Z</time>
      </trkpt>
      <trkpt lat="43.50123" lon="6.88141">
        <ele>305</ele>
        <time>2011-01-01T13:37:56Z</time>
      </trkpt>
      <trkpt lat="43.50123" lon="6.88146">
        <ele>305</ele>
        <time>2011-01-01T13:38:08Z</time>
      </trkpt>
      <trkpt lat="43.50124" lon="6.88145">
        <ele>305</ele>
        <time>2011-01-01T13:38:19Z</time>
      </trkpt>
      <trkpt lat="43.50126" lon="6.88146">
        <ele>305</ele>
        <time>2011-01-01T13:38:31Z</time>
      </trkpt>
      <trkpt lat="43.50128" lon="6.88151">
        <ele>305</ele>
        <time>2011-01-01T13:38:42Z</time>
      </trkpt>
      <trkpt lat="43.50134" lon="6.88157">
        <ele>305</ele>
        <time>2011-01-01T13:38:53Z</time>
      </trkpt>
      <trkpt lat="43.50141" lon="6.88163">
        <ele>305</ele>
        <time>2011-01-01T13:39:04Z</time>
      </trkpt>
      <trkpt lat="43.50144" lon="6.88172">
        <ele>305</ele>
        <time>2011-01-01T13:39:14Z</time>
      </trkpt>
      <trkpt lat="43.50146" lon="6.88182">
        <ele>305</ele>
        <time>2011-01-01T13:39:24Z</time>
      </trkpt>
      <trkpt lat="43.50148" lon="6.88191">
        <ele>305</ele>
        <time>2011-01-01T13:39:34Z</time>
      </trkpt>
      <trkpt lat="43.50151" lon="6.88201">
        <ele>304</ele>
        <time>2011-01-01T13:39:44Z</time>
      </trkpt>
      <trkpt lat="43.50154" lon="6.88209">
        <ele>303</ele>
        <time>2011-01-01T13:39:54Z</time>
      </trkpt>
      <trkpt lat="43.50158" lon="6.88218">
        <ele>303</ele>
        <time>2011-01-01T13:40:04Z</time>
      </trkpt>
      <trkpt lat="43.50162" lon="6.88225">
        <ele>302</ele>
        <time>2011-01-01T13:40:14Z</time>
      </trkpt>
      <trkpt lat="43.50168" lon="6.8823">
        <ele>302</ele>
        <time>2011-01-01T13:40:32Z</time>
      </trkpt>
      <trkpt lat="43.50171" lon="6.88233">
        <ele>302</ele>
        <time>2011-01-01T13:40:42Z</time>
      </trkpt>
      <trkpt lat="43.50176" lon="6.88238">
        <ele>302</ele>
        <time>2011-01-01T13:40:54Z</time>
      </trkpt>
      <trkpt lat="43.50183" lon="6.8824">
        <ele>302</ele>
        <time>2011-01-01T13:41:05Z</time>
      </trkpt>
      <trkpt lat="43.5019" lon="6.88243">
        <ele>302</ele>
        <time>2011-01-01T13:41:16Z</time>
      </trkpt>
      <trkpt lat="43.50197" lon="6.88244">
        <ele>302</ele>
        <time>2011-01-01T13:41:27Z</time>
      </trkpt>
      <trkpt lat="43.50204" lon="6.88249">
        <ele>302</ele>
        <time>2011-01-01T13:41:38Z</time>
      </trkpt>
      <trkpt lat="43.5021" lon="6.88255">
        <ele>302</ele>
        <time>2011-01-01T13:41:49Z</time>
      </trkpt>
      <trkpt lat="43.50215" lon="6.88261">
        <ele>302</ele>
        <time>2011-01-01T13:41:59Z</time>
      </trkpt>
      <trkpt lat="43.5022" lon="6.88268">
        <ele>302</ele>
        <time>2011-01-01T13:42:10Z</time>
      </trkpt>
      <trkpt lat="43.50227" lon="6.88274">
        <ele>302</ele>
        <time>2011-01-01T13:42:21Z</time>
      </trkpt>
      <trkpt lat="43.5023" lon="6.88277">
        <ele>302</ele>
        <time>2011-01-01T13:42:37Z</time>
      </trkpt>
      <trkpt lat="43.5023" lon="6.88285">
        <ele>302</ele>
        <time>2011-01-01T13:42:48Z</time>
      </trkpt>
      <trkpt lat="43.50232" lon="6.88296">
        <ele>302</ele>
        <time>2011-01-01T13:42:58Z</time>
      </trkpt>
      <trkpt lat="43.50233" lon="6.88305">
        <ele>302</ele>
        <time>2011-01-01T13:43:08Z</time>
      </trkpt>
      <trkpt lat="43.50235" lon="6.88316">
        <ele>302</ele>
        <time>2011-01-01T13:43:18Z</time>
      </trkpt>
      <trkpt lat="43.50239" lon="6.88326">
        <ele>302</ele>
        <time>2011-01-01T13:43:28Z</time>
      </trkpt>
      <trkpt lat="43.50243" lon="6.88335">
        <ele>301</ele>
        <time>2011-01-01T13:43:41Z</time>
      </trkpt>
      <trkpt lat="43.50244" lon="6.88346">
        <ele>300</ele>
        <time>2011-01-01T13:43:51Z</time>
      </trkpt>
      <trkpt lat="43.50244" lon="6.88356">
        <ele>300</ele>
        <time>2011-01-01T13:44:02Z</time>
      </trkpt>
      <trkpt lat="43.50248" lon="6.88364">
        <ele>300</ele>
        <time>2011-01-01T13:44:12Z</time>
      </trkpt>
      <trkpt lat="43.50252" lon="6.88373">
        <ele>300</ele>
        <time>2011-01-01T13:44:23Z</time>
      </trkpt>
      <trkpt lat="43.50253" lon="6.88383">
        <ele>300</ele>
        <time>2011-01-01T13:44:33Z</time>
      </trkpt>
      <trkpt lat="43.50248" lon="6.88392">
        <ele>300</ele>
        <time>2011-01-01T13:44:43Z</time>
      </trkpt>
      <trkpt lat="43.50245" lon="6.88402">
        <ele>300</ele>
        <time>2011-01-01T13:44:53Z</time>
      </trkpt>
      <trkpt lat="43.50244" lon="6.8841">
        <ele>300</ele>
        <time>2011-01-01T13:45:04Z</time>
      </trkpt>
      <trkpt lat="43.50246" lon="6.88421">
        <ele>300</ele>
        <time>2011-01-01T13:45:15Z</time>
      </trkpt>
      <trkpt lat="43.50251" lon="6.8843">
        <ele>300</ele>
        <time>2011-01-01T13:45:25Z</time>
      </trkpt>
      <trkpt lat="43.50255" lon="6.8844">
        <ele>300</ele>
        <time>2011-01-01T13:45:35Z</time>
      </trkpt>
      <trkpt lat="43.50257" lon="6.88449">
        <ele>300</ele>
        <time>2011-01-01T13:45:45Z</time>
      </trkpt>
      <trkpt lat="43.50257" lon="6.88459">
        <ele>300</ele>
        <time>2011-01-01T13:45:55Z</time>
      </trkpt>
      <trkpt lat="43.50257" lon="6.88469">
        <ele>300</ele>
        <time>2011-01-01T13:46:05Z</time>
      </trkpt>
      <trkpt lat="43.50259" lon="6.88478">
        <ele>300</ele>
        <time>2011-01-01T13:46:15Z</time>
      </trkpt>
      <trkpt lat="43.5026" lon="6.88487">
        <ele>301</ele>
        <time>2011-01-01T13:46:25Z</time>
      </trkpt>
      <trkpt lat="43.5026" lon="6.88497">
        <ele>302</ele>
        <time>2011-01-01T13:46:35Z</time>
      </trkpt>
      <trkpt lat="43.50258" lon="6.88507">
        <ele>303</ele>
        <time>2011-01-01T13:46:45Z</time>
      </trkpt>
      <trkpt lat="43.50256" lon="6.88517">
        <ele>303</ele>
        <time>2011-01-01T13:46:56Z</time>
      </trkpt>
      <trkpt lat="43.50255" lon="6.88526">
        <ele>303</ele>
        <time>2011-01-01T13:47:06Z</time>
      </trkpt>
      <trkpt lat="43.50255" lon="6.88533">
        <ele>303</ele>
        <time>2011-01-01T13:47:16Z</time>
      </trkpt>
      <trkpt lat="43.50249" lon="6.8854">
        <ele>303</ele>
        <time>2011-01-01T13:47:26Z</time>
      </trkpt>
      <trkpt lat="43.50244" lon="6.88549">
        <ele>303</ele>
        <time>2011-01-01T13:47:36Z</time>
      </trkpt>
      <trkpt lat="43.50238" lon="6.88558">
        <ele>303</ele>
        <time>2011-01-01T13:47:47Z</time>
      </trkpt>
      <trkpt lat="43.50233" lon="6.88568">
        <ele>303</ele>
        <time>2011-01-01T13:47:57Z</time>
      </trkpt>
      <trkpt lat="43.50227" lon="6.88578">
        <ele>303</ele>
        <time>2011-01-01T13:48:07Z</time>
      </trkpt>
      <trkpt lat="43.50221" lon="6.88587">
        <ele>303</ele>
        <time>2011-01-01T13:48:17Z</time>
      </trkpt>
      <trkpt lat="43.50215" lon="6.88596">
        <ele>303</ele>
        <time>2011-01-01T13:48:28Z</time>
      </trkpt>
      <trkpt lat="43.5021" lon="6.88601">
        <ele>303</ele>
        <time>2011-01-01T13:48:39Z</time>
      </trkpt>
      <trkpt lat="43.50203" lon="6.88606">
        <ele>303</ele>
        <time>2011-01-01T13:48:49Z</time>
      </trkpt>
      <trkpt lat="43.50195" lon="6.88613">
        <ele>303</ele>
        <time>2011-01-01T13:48:59Z</time>
      </trkpt>
      <trkpt lat="43.50188" lon="6.88619">
        <ele>303</ele>
        <time>2011-01-01T13:49:09Z</time>
      </trkpt>
      <trkpt lat="43.50183" lon="6.88628">
        <ele>303</ele>
        <time>2011-01-01T13:49:20Z</time>
      </trkpt>
      <trkpt lat="43.5018" lon="6.88635">
        <ele>303</ele>
        <time>2011-01-01T13:49:30Z</time>
      </trkpt>
      <trkpt lat="43.50177" lon="6.88645">
        <ele>306</ele>
        <time>2011-01-01T13:49:41Z</time>
      </trkpt>
      <trkpt lat="43.50175" lon="6.88654">
        <ele>306</ele>
        <time>2011-01-01T13:49:52Z</time>
      </trkpt>
      <trkpt lat="43.50175" lon="6.88663">
        <ele>306</ele>
        <time>2011-01-01T13:50:04Z</time>
      </trkpt>
      <trkpt lat="43.50174" lon="6.88671">
        <ele>308</ele>
        <time>2011-01-01T13:50:14Z</time>
      </trkpt>
      <trkpt lat="43.50174" lon="6.88683">
        <ele>310</ele>
        <time>2011-01-01T13:50:25Z</time>
      </trkpt>
      <trkpt lat="43.50174" lon="6.88693">
        <ele>312</ele>
        <time>2011-01-01T13:50:35Z</time>
      </trkpt>
      <trkpt lat="43.50174" lon="6.88704">
        <ele>312</ele>
        <time>2011-01-01T13:50:46Z</time>
      </trkpt>
      <trkpt lat="43.50173" lon="6.88716">
        <ele>312</ele>
        <time>2011-01-01T13:50:57Z</time>
      </trkpt>
      <trkpt lat="43.50173" lon="6.88728">
        <ele>312</ele>
        <time>2011-01-01T13:51:07Z</time>
      </trkpt>
      <trkpt lat="43.50175" lon="6.88739">
        <ele>314</ele>
        <time>2011-01-01T13:51:17Z</time>
      </trkpt>
      <trkpt lat="43.50177" lon="6.88749">
        <ele>315</ele>
        <time>2011-01-01T13:51:27Z</time>
      </trkpt>
      <trkpt lat="43.5018" lon="6.8876">
        <ele>316</ele>
        <time>2011-01-01T13:51:37Z</time>
      </trkpt>
      <trkpt lat="43.50182" lon="6.8877">
        <ele>317</ele>
        <time>2011-01-01T13:51:47Z</time>
      </trkpt>
      <trkpt lat="43.50185" lon="6.88781">
        <ele>318</ele>
        <time>2011-01-01T13:51:57Z</time>
      </trkpt>
      <trkpt lat="43.50187" lon="6.88792">
        <ele>320</ele>
        <time>2011-01-01T13:52:07Z</time>
      </trkpt>
      <trkpt lat="43.5019" lon="6.88803">
        <ele>321</ele>
        <time>2011-01-01T13:52:17Z</time>
      </trkpt>
      <trkpt lat="43.5019" lon="6.88815">
        <ele>323</ele>
        <time>2011-01-01T13:52:28Z</time>
      </trkpt>
      <trkpt lat="43.50192" lon="6.88822">
        <ele>325</ele>
        <time>2011-01-01T13:52:39Z</time>
      </trkpt>
      <trkpt lat="43.50193" lon="6.88825">
        <ele>325</ele>
        <time>2011-01-01T13:52:51Z</time>
      </trkpt>
      <trkpt lat="43.50193" lon="6.88835">
        <ele>327</ele>
        <time>2011-01-01T13:53:01Z</time>
      </trkpt>
      <trkpt lat="43.50192" lon="6.88846">
        <ele>328</ele>
        <time>2011-01-01T13:53:11Z</time>
      </trkpt>
      <trkpt lat="43.50191" lon="6.88851">
        <ele>330</ele>
        <time>2011-01-01T13:53:21Z</time>
      </trkpt>
      <trkpt lat="43.50188" lon="6.88859">
        <ele>330</ele>
        <time>2011-01-01T13:53:31Z</time>
      </trkpt>
      <trkpt lat="43.50187" lon="6.88868">
        <ele>331</ele>
        <time>2011-01-01T13:53:41Z</time>
      </trkpt>
      <trkpt lat="43.50185" lon="6.88877">
        <ele>331</ele>
        <time>2011-01-01T13:53:51Z</time>
      </trkpt>
      <trkpt lat="43.50184" lon="6.88882">
        <ele>331</ele>
        <time>2011-01-01T13:54:12Z</time>
      </trkpt>
      <trkpt lat="43.50181" lon="6.88889">
        <ele>331</ele>
        <time>2011-01-01T13:54:23Z</time>
      </trkpt>
      <trkpt lat="43.50177" lon="6.88898">
        <ele>331</ele>
        <time>2011-01-01T13:54:33Z</time>
      </trkpt>
      <trkpt lat="43.50174" lon="6.88906">
        <ele>331</ele>
        <time>2011-01-01T13:54:44Z</time>
      </trkpt>
      <trkpt lat="43.50172" lon="6.88914">
        <ele>331</ele>
        <time>2011-01-01T13:54:57Z</time>
      </trkpt>
      <trkpt lat="43.50171" lon="6.88924">
        <ele>331</ele>
        <time>2011-01-01T13:55:07Z</time>
      </trkpt>
      <trkpt lat="43.50169" lon="6.88937">
        <ele>331</ele>
        <time>2011-01-01T13:55:18Z</time>
      </trkpt>
      <trkpt lat="43.50169" lon="6.88951">
        <ele>331</ele>
        <time>2011-01-01T13:55:29Z</time>
      </trkpt>
      <trkpt lat="43.50167" lon="6.88963">
        <ele>332</ele>
        <time>2011-01-01T13:55:39Z</time>
      </trkpt>
      <trkpt lat="43.50165" lon="6.88975">
        <ele>333</ele>
        <time>2011-01-01T13:55:50Z</time>
      </trkpt>
      <trkpt lat="43.50161" lon="6.88986">
        <ele>333</ele>
        <time>2011-01-01T13:56:00Z</time>
      </trkpt>
      <trkpt lat="43.50158" lon="6.88998">
        <ele>335</ele>
        <time>2011-01-01T13:56:10Z</time>
      </trkpt>
      <trkpt lat="43.50154" lon="6.89009">
        <ele>337</ele>
        <time>2011-01-01T13:56:20Z</time>
      </trkpt>
      <trkpt lat="43.50151" lon="6.89019">
        <ele>338</ele>
        <time>2011-01-01T13:56:30Z</time>
      </trkpt>
      <trkpt lat="43.50147" lon="6.8903">
        <ele>339</ele>
        <time>2011-01-01T13:56:40Z</time>
      </trkpt>
      <trkpt lat="43.50145" lon="6.8904">
        <ele>340</ele>
        <time>2011-01-01T13:56:50Z</time>
      </trkpt>
      <trkpt lat="43.50141" lon="6.8905">
        <ele>341</ele>
        <time>2011-01-01T13:57:00Z</time>
      </trkpt>
      <trkpt lat="43.50139" lon="6.8906">
        <ele>342</ele>
        <time>2011-01-01T13:57:10Z</time>
      </trkpt>
      <trkpt lat="43.50139" lon="6.8907">
        <ele>343</ele>
        <time>2011-01-01T13:57:20Z</time>
      </trkpt>
      <trkpt lat="43.5014" lon="6.89075">
        <ele>344</ele>
        <time>2011-01-01T13:57:33Z</time>
      </trkpt>
      <trkpt lat="43.50141" lon="6.89085">
        <ele>345</ele>
        <time>2011-01-01T13:57:43Z</time>
      </trkpt>
      <trkpt lat="43.50142" lon="6.89095">
        <ele>345</ele>
        <time>2011-01-01T13:57:53Z</time>
      </trkpt>
      <trkpt lat="43.50143" lon="6.89105">
        <ele>345</ele>
        <time>2011-01-01T13:58:03Z</time>
      </trkpt>
      <trkpt lat="43.50144" lon="6.89115">
        <ele>346</ele>
        <time>2011-01-01T13:58:13Z</time>
      </trkpt>
      <trkpt lat="43.50145" lon="6.89125">
        <ele>346</ele>
        <time>2011-01-01T13:58:24Z</time>
      </trkpt>
      <trkpt lat="43.50146" lon="6.89135">
        <ele>347</ele>
        <time>2011-01-01T13:58:34Z</time>
      </trkpt>
      <trkpt lat="43.50148" lon="6.89146">
        <ele>347</ele>
        <time>2011-01-01T13:58:44Z</time>
      </trkpt>
      <trkpt lat="43.5015" lon="6.89157">
        <ele>347</ele>
        <time>2011-01-01T13:58:54Z</time>
      </trkpt>
      <trkpt lat="43.50153" lon="6.89168">
        <ele>347</ele>
        <time>2011-01-01T13:59:04Z</time>
      </trkpt>
      <trkpt lat="43.50156" lon="6.89179">
        <ele>347</ele>
        <time>2011-01-01T13:59:14Z</time>
      </trkpt>
      <trkpt lat="43.50161" lon="6.89189">
        <ele>347</ele>
        <time>2011-01-01T13:59:24Z</time>
      </trkpt>
      <trkpt lat="43.50166" lon="6.89198">
        <ele>347</ele>
        <time>2011-01-01T13:59:34Z</time>
      </trkpt>
      <trkpt lat="43.50173" lon="6.89207">
        <ele>347</ele>
        <time>2011-01-01T13:59:44Z</time>
      </trkpt>
      <trkpt lat="43.50182" lon="6.89214">
        <ele>351</ele>
        <time>2011-01-01T13:59:55Z</time>
      </trkpt>
      <trkpt lat="43.5019" lon="6.8922">
        <ele>352</ele>
        <time>2011-01-01T14:00:05Z</time>
      </trkpt>
      <trkpt lat="43.50199" lon="6.89224">
        <ele>356</ele>
        <time>2011-01-01T14:00:15Z</time>
      </trkpt>
      <trkpt lat="43.50207" lon="6.89228">
        <ele>357</ele>
        <time>2011-01-01T14:00:25Z</time>
      </trkpt>
      <trkpt lat="43.50216" lon="6.89229">
        <ele>358</ele>
        <time>2011-01-01T14:00:35Z</time>
      </trkpt>
      <trkpt lat="43.50226" lon="6.89228">
        <ele>360</ele>
        <time>2011-01-01T14:00:45Z</time>
      </trkpt>
      <trkpt lat="43.50233" lon="6.89232">
        <ele>360</ele>
        <time>2011-01-01T14:00:56Z</time>
      </trkpt>
      <trkpt lat="43.50228" lon="6.89241">
        <ele>362</ele>
        <time>2011-01-01T14:01:06Z</time>
      </trkpt>
      <trkpt lat="43.50218" lon="6.89245">
        <ele>364</ele>
        <time>2011-01-01T14:01:17Z</time>
      </trkpt>
      <trkpt lat="43.50211" lon="6.89253">
        <ele>364</ele>
        <time>2011-01-01T14:01:28Z</time>
      </trkpt>
      <trkpt lat="43.50209" lon="6.89261">
        <ele>365</ele>
        <time>2011-01-01T14:01:40Z</time>
      </trkpt>
      <trkpt lat="43.50212" lon="6.89272">
        <ele>365</ele>
        <time>2011-01-01T14:01:51Z</time>
      </trkpt>
      <trkpt lat="43.50211" lon="6.89271">
        <ele>366</ele>
        <time>2011-01-01T14:03:31Z</time>
      </trkpt>
      <trkpt lat="43.50211" lon="6.8927">
        <ele>366</ele>
        <time>2011-01-01T14:03:53Z</time>
      </trkpt>
      <trkpt lat="43.5021" lon="6.89272">
        <ele>366</ele>
        <time>2011-01-01T14:04:05Z</time>
      </trkpt>
      <trkpt lat="43.5021" lon="6.89273">
        <ele>366</ele>
        <time>2011-01-01T14:04:43Z</time>
      </trkpt>
      <trkpt lat="43.5021" lon="6.89275">
        <ele>366</ele>
        <time>2011-01-01T14:05:31Z</time>
      </trkpt>
      <trkpt lat="43.5021" lon="6.89276">
        <ele>366</ele>
        <time>2011-01-01T14:05:42Z</time>
      </trkpt>
      <trkpt lat="43.50211" lon="6.89275">
        <ele>366</ele>
        <time>2011-01-01T14:06:08Z</time>
      </trkpt>
      <trkpt lat="43.50216" lon="6.89268">
        <ele>366</ele>
        <time>2011-01-01T14:06:18Z</time>
      </trkpt>
      <trkpt lat="43.50218" lon="6.8926">
        <ele>365</ele>
        <time>2011-01-01T14:06:35Z</time>
      </trkpt>
      <trkpt lat="43.50215" lon="6.89258">
        <ele>365</ele>
        <time>2011-01-01T14:07:01Z</time>
      </trkpt>
      <trkpt lat="43.50216" lon="6.89256">
        <ele>365</ele>
        <time>2011-01-01T14:07:17Z</time>
      </trkpt>
      <trkpt lat="43.50214" lon="6.89263">
        <ele>365</ele>
        <time>2011-01-01T14:07:28Z</time>
      </trkpt>
      <trkpt lat="43.50209" lon="6.89268">
        <ele>365</ele>
        <time>2011-01-01T14:07:38Z</time>
      </trkpt>
      <trkpt lat="43.50207" lon="6.89273">
        <ele>365</ele>
        <time>2011-01-01T14:07:48Z</time>
      </trkpt>
      <trkpt lat="43.50209" lon="6.89275">
        <ele>365</ele>
        <time>2011-01-01T14:08:16Z</time>
      </trkpt>
      <trkpt lat="43.50209" lon="6.89272">
        <ele>365</ele>
        <time>2011-01-01T14:10:09Z</time>
      </trkpt>
      <trkpt lat="43.50206" lon="6.89266">
        <ele>365</ele>
        <time>2011-01-01T14:10:19Z</time>
      </trkpt>
      <trkpt lat="43.50202" lon="6.89262">
        <ele>365</ele>
        <time>2011-01-01T14:10:29Z</time>
      </trkpt>
      <trkpt lat="43.50198" lon="6.89259">
        <ele>365</ele>
        <time>2011-01-01T14:10:39Z</time>
      </trkpt>
      <trkpt lat="43.50193" lon="6.8926">
        <ele>365</ele>
        <time>2011-01-01T14:10:50Z</time>
      </trkpt>
      <trkpt lat="43.50188" lon="6.89263">
        <ele>365</ele>
        <time>2011-01-01T14:11:00Z</time>
      </trkpt>
      <trkpt lat="43.50181" lon="6.89266">
        <ele>365</ele>
        <time>2011-01-01T14:11:11Z</time>
      </trkpt>
      <trkpt lat="43.50174" lon="6.89271">
        <ele>365</ele>
        <time>2011-01-01T14:11:22Z</time>
      </trkpt>
      <trkpt lat="43.50168" lon="6.89277">
        <ele>365</ele>
        <time>2011-01-01T14:11:33Z</time>
      </trkpt>
      <trkpt lat="43.50162" lon="6.89284">
        <ele>365</ele>
        <time>2011-01-01T14:11:44Z</time>
      </trkpt>
      <trkpt lat="43.50156" lon="6.89292">
        <ele>365</ele>
        <time>2011-01-01T14:11:54Z</time>
      </trkpt>
      <trkpt lat="43.50152" lon="6.893">
        <ele>365</ele>
        <time>2011-01-01T14:12:05Z</time>
      </trkpt>
      <trkpt lat="43.50146" lon="6.89307">
        <ele>365</ele>
        <time>2011-01-01T14:12:16Z</time>
      </trkpt>
      <trkpt lat="43.50141" lon="6.89316">
        <ele>364</ele>
        <time>2011-01-01T14:12:26Z</time>
      </trkpt>
      <trkpt lat="43.50136" lon="6.89324">
        <ele>364</ele>
        <time>2011-01-01T14:12:36Z</time>
      </trkpt>
      <trkpt lat="43.5013" lon="6.89334">
        <ele>363</ele>
        <time>2011-01-01T14:12:48Z</time>
      </trkpt>
      <trkpt lat="43.50125" lon="6.89343">
        <ele>362</ele>
        <time>2011-01-01T14:12:58Z</time>
      </trkpt>
      <trkpt lat="43.5012" lon="6.89352">
        <ele>362</ele>
        <time>2011-01-01T14:13:08Z</time>
      </trkpt>
      <trkpt lat="43.50114" lon="6.8936">
        <ele>361</ele>
        <time>2011-01-01T14:13:19Z</time>
      </trkpt>
      <trkpt lat="43.50108" lon="6.89369">
        <ele>360</ele>
        <time>2011-01-01T14:13:29Z</time>
      </trkpt>
      <trkpt lat="43.50101" lon="6.89377">
        <ele>359</ele>
        <time>2011-01-01T14:13:41Z</time>
      </trkpt>
      <trkpt lat="43.50091" lon="6.89383">
        <ele>358</ele>
        <time>2011-01-01T14:13:53Z</time>
      </trkpt>
      <trkpt lat="43.50081" lon="6.89387">
        <ele>357</ele>
        <time>2011-01-01T14:14:05Z</time>
      </trkpt>
      <trkpt lat="43.50072" lon="6.89389">
        <ele>356</ele>
        <time>2011-01-01T14:14:17Z</time>
      </trkpt>
      <trkpt lat="43.50065" lon="6.89391">
        <ele>355</ele>
        <time>2011-01-01T14:14:27Z</time>
      </trkpt>
      <trkpt lat="43.50058" lon="6.89392">
        <ele>354</ele>
        <time>2011-01-01T14:14:37Z</time>
      </trkpt>
      <trkpt lat="43.50048" lon="6.89392">
        <ele>353</ele>
        <time>2011-01-01T14:14:48Z</time>
      </trkpt>
      <trkpt lat="43.5004" lon="6.89395">
        <ele>352</ele>
        <time>2011-01-01T14:14:58Z</time>
      </trkpt>
      <trkpt lat="43.50034" lon="6.89396">
        <ele>352</ele>
        <time>2011-01-01T14:15:16Z</time>
      </trkpt>
      <trkpt lat="43.50033" lon="6.89403">
        <ele>351</ele>
        <time>2011-01-01T14:15:26Z</time>
      </trkpt>
      <trkpt lat="43.50038" lon="6.89405">
        <ele>351</ele>
        <time>2011-01-01T14:15:36Z</time>
      </trkpt>
      <trkpt lat="43.50046" lon="6.89403">
        <ele>351</ele>
        <time>2011-01-01T14:15:46Z</time>
      </trkpt>
      <trkpt lat="43.50053" lon="6.89402">
        <ele>351</ele>
        <time>2011-01-01T14:15:56Z</time>
      </trkpt>
      <trkpt lat="43.50061" lon="6.89402">
        <ele>351</ele>
        <time>2011-01-01T14:16:06Z</time>
      </trkpt>
      <trkpt lat="43.5007" lon="6.89401">
        <ele>351</ele>
        <time>2011-01-01T14:16:16Z</time>
      </trkpt>
      <trkpt lat="43.50078" lon="6.89401">
        <ele>351</ele>
        <time>2011-01-01T14:16:26Z</time>
      </trkpt>
      <trkpt lat="43.50085" lon="6.894">
        <ele>351</ele>
        <time>2011-01-01T14:16:36Z</time>
      </trkpt>
      <trkpt lat="43.50093" lon="6.89399">
        <ele>351</ele>
        <time>2011-01-01T14:16:46Z</time>
      </trkpt>
      <trkpt lat="43.501" lon="6.89395">
        <ele>351</ele>
        <time>2011-01-01T14:16:57Z</time>
      </trkpt>
      <trkpt lat="43.50107" lon="6.89392">
        <ele>351</ele>
        <time>2011-01-01T14:17:07Z</time>
      </trkpt>
      <trkpt lat="43.50114" lon="6.89387">
        <ele>351</ele>
        <time>2011-01-01T14:17:17Z</time>
      </trkpt>
      <trkpt lat="43.50121" lon="6.89381">
        <ele>351</ele>
        <time>2011-01-01T14:17:27Z</time>
      </trkpt>
      <trkpt lat="43.50128" lon="6.89373">
        <ele>351</ele>
        <time>2011-01-01T14:17:37Z</time>
      </trkpt>
      <trkpt lat="43.50135" lon="6.89364">
        <ele>351</ele>
        <time>2011-01-01T14:17:47Z</time>
      </trkpt>
      <trkpt lat="43.50142" lon="6.89357">
        <ele>351</ele>
        <time>2011-01-01T14:17:57Z</time>
      </trkpt>
      <trkpt lat="43.50148" lon="6.89349">
        <ele>351</ele>
        <time>2011-01-01T14:18:07Z</time>
      </trkpt>
      <trkpt lat="43.50155" lon="6.89342">
        <ele>351</ele>
        <time>2011-01-01T14:18:17Z</time>
      </trkpt>
      <trkpt lat="43.50163" lon="6.89336">
        <ele>351</ele>
        <time>2011-01-01T14:18:27Z</time>
      </trkpt>
      <trkpt lat="43.5017" lon="6.89331">
        <ele>351</ele>
        <time>2011-01-01T14:18:37Z</time>
      </trkpt>
      <trkpt lat="43.50178" lon="6.89327">
        <ele>351</ele>
        <time>2011-01-01T14:18:47Z</time>
      </trkpt>
      <trkpt lat="43.50187" lon="6.89325">
        <ele>351</ele>
        <time>2011-01-01T14:18:57Z</time>
      </trkpt>
      <trkpt lat="43.50196" lon="6.89325">
        <ele>351</ele>
        <time>2011-01-01T14:19:07Z</time>
      </trkpt>
      <trkpt lat="43.50206" lon="6.89326">
        <ele>351</ele>
        <time>2011-01-01T14:19:17Z</time>
      </trkpt>
      <trkpt lat="43.50215" lon="6.8933">
        <ele>350</ele>
        <time>2011-01-01T14:19:27Z</time>
      </trkpt>
      <trkpt lat="43.50223" lon="6.89337">
        <ele>349</ele>
        <time>2011-01-01T14:19:37Z</time>
      </trkpt>
      <trkpt lat="43.5023" lon="6.89344">
        <ele>348</ele>
        <time>2011-01-01T14:19:47Z</time>
      </trkpt>
      <trkpt lat="43.50237" lon="6.89352">
        <ele>347</ele>
        <time>2011-01-01T14:19:57Z</time>
      </trkpt>
      <trkpt lat="43.50243" lon="6.89361">
        <ele>346</ele>
        <time>2011-01-01T14:20:07Z</time>
      </trkpt>
      <trkpt lat="43.50249" lon="6.89368">
        <ele>345</ele>
        <time>2011-01-01T14:20:17Z</time>
      </trkpt>
      <trkpt lat="43.50256" lon="6.89376">
        <ele>344</ele>
        <time>2011-01-01T14:20:27Z</time>
      </trkpt>
      <trkpt lat="43.50263" lon="6.89383">
        <ele>343</ele>
        <time>2011-01-01T14:20:37Z</time>
      </trkpt>
      <trkpt lat="43.5027" lon="6.89391">
        <ele>342</ele>
        <time>2011-01-01T14:20:47Z</time>
      </trkpt>
      <trkpt lat="43.50279" lon="6.89399">
        <ele>342</ele>
        <time>2011-01-01T14:20:58Z</time>
      </trkpt>
      <trkpt lat="43.50286" lon="6.89405">
        <ele>342</ele>
        <time>2011-01-01T14:21:08Z</time>
      </trkpt>
      <trkpt lat="43.50293" lon="6.89411">
        <ele>342</ele>
        <time>2011-01-01T14:21:18Z</time>
      </trkpt>
      <trkpt lat="43.50298" lon="6.89421">
        <ele>342</ele>
        <time>2011-01-01T14:21:28Z</time>
      </trkpt>
      <trkpt lat="43.50302" lon="6.89431">
        <ele>342</ele>
        <time>2011-01-01T14:21:38Z</time>
      </trkpt>
      <trkpt lat="43.50305" lon="6.8944">
        <ele>342</ele>
        <time>2011-01-01T14:21:48Z</time>
      </trkpt>
      <trkpt lat="43.50308" lon="6.8945">
        <ele>341</ele>
        <time>2011-01-01T14:21:58Z</time>
      </trkpt>
      <trkpt lat="43.50313" lon="6.89459">
        <ele>339</ele>
        <time>2011-01-01T14:22:08Z</time>
      </trkpt>
      <trkpt lat="43.50317" lon="6.89468">
        <ele>339</ele>
        <time>2011-01-01T14:22:18Z</time>
      </trkpt>
      <trkpt lat="43.50322" lon="6.89478">
        <ele>339</ele>
        <time>2011-01-01T14:22:28Z</time>
      </trkpt>
      <trkpt lat="43.50326" lon="6.89487">
        <ele>339</ele>
        <time>2011-01-01T14:22:39Z</time>
      </trkpt>
      <trkpt lat="43.5033" lon="6.89494">
        <ele>336</ele>
        <time>2011-01-01T14:22:49Z</time>
      </trkpt>
      <trkpt lat="43.50335" lon="6.89502">
        <ele>333</ele>
        <time>2011-01-01T14:22:59Z</time>
      </trkpt>
      <trkpt lat="43.5034" lon="6.8951">
        <ele>332</ele>
        <time>2011-01-01T14:23:10Z</time>
      </trkpt>
      <trkpt lat="43.50346" lon="6.89519">
        <ele>330</ele>
        <time>2011-01-01T14:23:20Z</time>
      </trkpt>
      <trkpt lat="43.50354" lon="6.89529">
        <ele>330</ele>
        <time>2011-01-01T14:23:30Z</time>
      </trkpt>
      <trkpt lat="43.50361" lon="6.89537">
        <ele>329</ele>
        <time>2011-01-01T14:23:40Z</time>
      </trkpt>
      <trkpt lat="43.50368" lon="6.89544">
        <ele>329</ele>
        <time>2011-01-01T14:23:50Z</time>
      </trkpt>
      <trkpt lat="43.50377" lon="6.89551">
        <ele>328</ele>
        <time>2011-01-01T14:24:00Z</time>
      </trkpt>
      <trkpt lat="43.50383" lon="6.89559">
        <ele>328</ele>
        <time>2011-01-01T14:24:10Z</time>
      </trkpt>
      <trkpt lat="43.5039" lon="6.89569">
        <ele>328</ele>
        <time>2011-01-01T14:24:20Z</time>
      </trkpt>
      <trkpt lat="43.50396" lon="6.89577">
        <ele>328</ele>
        <time>2011-01-01T14:24:30Z</time>
      </trkpt>
      <trkpt lat="43.50405" lon="6.89585">
        <ele>328</ele>
        <time>2011-01-01T14:24:40Z</time>
      </trkpt>
      <trkpt lat="43.50414" lon="6.89596">
        <ele>328</ele>
        <time>2011-01-01T14:24:50Z</time>
      </trkpt>
      <trkpt lat="43.50419" lon="6.89607">
        <ele>328</ele>
        <time>2011-01-01T14:25:00Z</time>
      </trkpt>
      <trkpt lat="43.50425" lon="6.89617">
        <ele>326</ele>
        <time>2011-01-01T14:25:10Z</time>
      </trkpt>
      <trkpt lat="43.5043" lon="6.89627">
        <ele>325</ele>
        <time>2011-01-01T14:25:20Z</time>
      </trkpt>
      <trkpt lat="43.50438" lon="6.89637">
        <ele>324</ele>
        <time>2011-01-01T14:25:30Z</time>
      </trkpt>
      <trkpt lat="43.50446" lon="6.89647">
        <ele>323</ele>
        <time>2011-01-01T14:25:40Z</time>
      </trkpt>
      <trkpt lat="43.50454" lon="6.89655">
        <ele>322</ele>
        <time>2011-01-01T14:25:50Z</time>
      </trkpt>
      <trkpt lat="43.50463" lon="6.89664">
        <ele>322</ele>
        <time>2011-01-01T14:26:00Z</time>
      </trkpt>
      <trkpt lat="43.5047" lon="6.89672">
        <ele>320</ele>
        <time>2011-01-01T14:26:11Z</time>
      </trkpt>
      <trkpt lat="43.50479" lon="6.89681">
        <ele>319</ele>
        <time>2011-01-01T14:26:22Z</time>
      </trkpt>
      <trkpt lat="43.50483" lon="6.89692">
        <ele>318</ele>
        <time>2011-01-01T14:26:33Z</time>
      </trkpt>
      <trkpt lat="43.50489" lon="6.89702">
        <ele>315</ele>
        <time>2011-01-01T14:26:44Z</time>
      </trkpt>
      <trkpt lat="43.50499" lon="6.897">
        <ele>315</ele>
        <time>2011-01-01T14:26:55Z</time>
      </trkpt>
      <trkpt lat="43.50502" lon="6.89701">
        <ele>315</ele>
        <time>2011-01-01T14:27:36Z</time>
      </trkpt>
      <trkpt lat="43.505" lon="6.89703">
        <ele>318</ele>
        <time>2011-01-01T14:27:47Z</time>
      </trkpt>
      <trkpt lat="43.50502" lon="6.89697">
        <ele>319</ele>
        <time>2011-01-01T14:27:58Z</time>
      </trkpt>
      <trkpt lat="43.50507" lon="6.89687">
        <ele>319</ele>
        <time>2011-01-01T14:28:08Z</time>
      </trkpt>
      <trkpt lat="43.5051" lon="6.89675">
        <ele>319</ele>
        <time>2011-01-01T14:28:18Z</time>
      </trkpt>
      <trkpt lat="43.50515" lon="6.89668">
        <ele>319</ele>
        <time>2011-01-01T14:28:28Z</time>
      </trkpt>
      <trkpt lat="43.50521" lon="6.8966">
        <ele>319</ele>
        <time>2011-01-01T14:28:39Z</time>
      </trkpt>
      <trkpt lat="43.50526" lon="6.89652">
        <ele>319</ele>
        <time>2011-01-01T14:28:49Z</time>
      </trkpt>
      <trkpt lat="43.50532" lon="6.89644">
        <ele>316</ele>
        <time>2011-01-01T14:28:59Z</time>
      </trkpt>
      <trkpt lat="43.50536" lon="6.89637">
        <ele>315</ele>
        <time>2011-01-01T14:29:10Z</time>
      </trkpt>
      <trkpt lat="43.50543" lon="6.89628">
        <ele>312</ele>
        <time>2011-01-01T14:29:21Z</time>
      </trkpt>
      <trkpt lat="43.50549" lon="6.89619">
        <ele>312</ele>
        <time>2011-01-01T14:29:32Z</time>
      </trkpt>
      <trkpt lat="43.50554" lon="6.8961">
        <ele>311</ele>
        <time>2011-01-01T14:29:42Z</time>
      </trkpt>
      <trkpt lat="43.5056" lon="6.89601">
        <ele>309</ele>
        <time>2011-01-01T14:29:52Z</time>
      </trkpt>
      <trkpt lat="43.50565" lon="6.89592">
        <ele>308</ele>
        <time>2011-01-01T14:30:03Z</time>
      </trkpt>
      <trkpt lat="43.50569" lon="6.89583">
        <ele>308</ele>
        <time>2011-01-01T14:30:13Z</time>
      </trkpt>
      <trkpt lat="43.50571" lon="6.8958">
        <ele>306</ele>
        <time>2011-01-01T14:30:23Z</time>
      </trkpt>
      <trkpt lat="43.50573" lon="6.89575">
        <ele>305</ele>
        <time>2011-01-01T14:30:34Z</time>
      </trkpt>
      <trkpt lat="43.50576" lon="6.89566">
        <ele>303</ele>
        <time>2011-01-01T14:30:44Z</time>
      </trkpt>
      <trkpt lat="43.50577" lon="6.89554">
        <ele>303</ele>
        <time>2011-01-01T14:30:55Z</time>
      </trkpt>
      <trkpt lat="43.50577" lon="6.89545">
        <ele>301</ele>
        <time>2011-01-01T14:31:05Z</time>
      </trkpt>
      <trkpt lat="43.50578" lon="6.89535">
        <ele>298</ele>
        <time>2011-01-01T14:31:15Z</time>
      </trkpt>
      <trkpt lat="43.50578" lon="6.89525">
        <ele>296</ele>
        <time>2011-01-01T14:31:25Z</time>
      </trkpt>
      <trkpt lat="43.50578" lon="6.89513">
        <ele>295</ele>
        <time>2011-01-01T14:31:35Z</time>
      </trkpt>
      <trkpt lat="43.50577" lon="6.895">
        <ele>295</ele>
        <time>2011-01-01T14:31:45Z</time>
      </trkpt>
      <trkpt lat="43.50576" lon="6.89485">
        <ele>294</ele>
        <time>2011-01-01T14:31:56Z</time>
      </trkpt>
      <trkpt lat="43.50577" lon="6.89473">
        <ele>292</ele>
        <time>2011-01-01T14:32:06Z</time>
      </trkpt>
      <trkpt lat="43.50577" lon="6.8946">
        <ele>291</ele>
        <time>2011-01-01T14:32:17Z</time>
      </trkpt>
      <trkpt lat="43.50577" lon="6.89449">
        <ele>290</ele>
        <time>2011-01-01T14:32:27Z</time>
      </trkpt>
      <trkpt lat="43.50578" lon="6.89437">
        <ele>289</ele>
        <time>2011-01-01T14:32:37Z</time>
      </trkpt>
      <trkpt lat="43.50581" lon="6.89427">
        <ele>289</ele>
        <time>2011-01-01T14:32:47Z</time>
      </trkpt>
      <trkpt lat="43.50585" lon="6.89417">
        <ele>287</ele>
        <time>2011-01-01T14:32:58Z</time>
      </trkpt>
      <trkpt lat="43.50589" lon="6.89408">
        <ele>284</ele>
        <time>2011-01-01T14:33:08Z</time>
      </trkpt>
      <trkpt lat="43.50594" lon="6.89399">
        <ele>282</ele>
        <time>2011-01-01T14:33:18Z</time>
      </trkpt>
      <trkpt lat="43.506" lon="6.89391">
        <ele>281</ele>
        <time>2011-01-01T14:33:28Z</time>
      </trkpt>
      <trkpt lat="43.50606" lon="6.89384">
        <ele>280</ele>
        <time>2011-01-01T14:33:39Z</time>
      </trkpt>
      <trkpt lat="43.50611" lon="6.89381">
        <ele>280</ele>
        <time>2011-01-01T14:33:50Z</time>
      </trkpt>
      <trkpt lat="43.50618" lon="6.89375">
        <ele>280</ele>
        <time>2011-01-01T14:34:00Z</time>
      </trkpt>
      <trkpt lat="43.50626" lon="6.8937">
        <ele>280</ele>
        <time>2011-01-01T14:34:10Z</time>
      </trkpt>
      <trkpt lat="43.50633" lon="6.89366">
        <ele>280</ele>
        <time>2011-01-01T14:34:20Z</time>
      </trkpt>
      <trkpt lat="43.5064" lon="6.89362">
        <ele>280</ele>
        <time>2011-01-01T14:34:30Z</time>
      </trkpt>
      <trkpt lat="43.50647" lon="6.89355">
        <ele>279</ele>
        <time>2011-01-01T14:34:41Z</time>
      </trkpt>
      <trkpt lat="43.50655" lon="6.89351">
        <ele>279</ele>
        <time>2011-01-01T14:34:51Z</time>
      </trkpt>
      <trkpt lat="43.50661" lon="6.89344">
        <ele>279</ele>
        <time>2011-01-01T14:35:01Z</time>
      </trkpt>
      <trkpt lat="43.50668" lon="6.8934">
        <ele>279</ele>
        <time>2011-01-01T14:35:11Z</time>
      </trkpt>
      <trkpt lat="43.50676" lon="6.89337">
        <ele>279</ele>
        <time>2011-01-01T14:35:21Z</time>
      </trkpt>
      <trkpt lat="43.50684" lon="6.89334">
        <ele>279</ele>
        <time>2011-01-01T14:35:31Z</time>
      </trkpt>
      <trkpt lat="43.50692" lon="6.89331">
        <ele>278</ele>
        <time>2011-01-01T14:35:41Z</time>
      </trkpt>
      <trkpt lat="43.50701" lon="6.89329">
        <ele>276</ele>
        <time>2011-01-01T14:35:51Z</time>
      </trkpt>
      <trkpt lat="43.50709" lon="6.89328">
        <ele>274</ele>
        <time>2011-01-01T14:36:01Z</time>
      </trkpt>
      <trkpt lat="43.50718" lon="6.89328">
        <ele>273</ele>
        <time>2011-01-01T14:36:11Z</time>
      </trkpt>
      <trkpt lat="43.50725" lon="6.89329">
        <ele>272</ele>
        <time>2011-01-01T14:36:21Z</time>
      </trkpt>
      <trkpt lat="43.50733" lon="6.8933">
        <ele>270</ele>
        <time>2011-01-01T14:36:31Z</time>
      </trkpt>
      <trkpt lat="43.50741" lon="6.89328">
        <ele>270</ele>
        <time>2011-01-01T14:36:41Z</time>
      </trkpt>
      <trkpt lat="43.50748" lon="6.89324">
        <ele>269</ele>
        <time>2011-01-01T14:36:51Z</time>
      </trkpt>
      <trkpt lat="43.50755" lon="6.89318">
        <ele>267</ele>
        <time>2011-01-01T14:37:01Z</time>
      </trkpt>
      <trkpt lat="43.50761" lon="6.89311">
        <ele>266</ele>
        <time>2011-01-01T14:37:11Z</time>
      </trkpt>
      <trkpt lat="43.50767" lon="6.89306">
        <ele>266</ele>
        <time>2011-01-01T14:37:21Z</time>
      </trkpt>
      <trkpt lat="43.50774" lon="6.89301">
        <ele>264</ele>
        <time>2011-01-01T14:37:32Z</time>
      </trkpt>
      <trkpt lat="43.5078" lon="6.89296">
        <ele>263</ele>
        <time>2011-01-01T14:37:42Z</time>
      </trkpt>
      <trkpt lat="43.50787" lon="6.89293">
        <ele>263</ele>
        <time>2011-01-01T14:37:52Z</time>
      </trkpt>
      <trkpt lat="43.50792" lon="6.89294">
        <ele>262</ele>
        <time>2011-01-01T14:38:05Z</time>
      </trkpt>
      <trkpt lat="43.50793" lon="6.89294">
        <ele>261</ele>
        <time>2011-01-01T14:38:16Z</time>
      </trkpt>
      <trkpt lat="43.50796" lon="6.89294">
        <ele>261</ele>
        <time>2011-01-01T14:38:30Z</time>
      </trkpt>
      <trkpt lat="43.50802" lon="6.89293">
        <ele>261</ele>
        <time>2011-01-01T14:38:40Z</time>
      </trkpt>
      <trkpt lat="43.50807" lon="6.89291">
        <ele>261</ele>
        <time>2011-01-01T14:38:52Z</time>
      </trkpt>
      <trkpt lat="43.50807" lon="6.8929">
        <ele>261</ele>
        <time>2011-01-01T14:39:17Z</time>
      </trkpt>
      <trkpt lat="43.50812" lon="6.89287">
        <ele>261</ele>
        <time>2011-01-01T14:39:27Z</time>
      </trkpt>
      <trkpt lat="43.50818" lon="6.89284">
        <ele>261</ele>
        <time>2011-01-01T14:39:37Z</time>
      </trkpt>
      <trkpt lat="43.50826" lon="6.89284">
        <ele>261</ele>
        <time>2011-01-01T14:39:47Z</time>
      </trkpt>
      <trkpt lat="43.50833" lon="6.89285">
        <ele>260</ele>
        <time>2011-01-01T14:39:57Z</time>
      </trkpt>
      <trkpt lat="43.5084" lon="6.89288">
        <ele>259</ele>
        <time>2011-01-01T14:40:07Z</time>
      </trkpt>
      <trkpt lat="43.50847" lon="6.89294">
        <ele>259</ele>
        <time>2011-01-01T14:40:18Z</time>
      </trkpt>
      <trkpt lat="43.50853" lon="6.89301">
        <ele>257</ele>
        <time>2011-01-01T14:40:28Z</time>
      </trkpt>
      <trkpt lat="43.50857" lon="6.8931">
        <ele>256</ele>
        <time>2011-01-01T14:40:39Z</time>
      </trkpt>
      <trkpt lat="43.50862" lon="6.89317">
        <ele>255</ele>
        <time>2011-01-01T14:40:49Z</time>
      </trkpt>
      <trkpt lat="43.50868" lon="6.89324">
        <ele>254</ele>
        <time>2011-01-01T14:40:59Z</time>
      </trkpt>
      <trkpt lat="43.50873" lon="6.89331">
        <ele>253</ele>
        <time>2011-01-01T14:41:10Z</time>
      </trkpt>
      <trkpt lat="43.50878" lon="6.89337">
        <ele>252</ele>
        <time>2011-01-01T14:41:21Z</time>
      </trkpt>
      <trkpt lat="43.50883" lon="6.89341">
        <ele>251</ele>
        <time>2011-01-01T14:41:32Z</time>
      </trkpt>
      <trkpt lat="43.5089" lon="6.89343">
        <ele>249</ele>
        <time>2011-01-01T14:41:42Z</time>
      </trkpt>
      <trkpt lat="43.50897" lon="6.89343">
        <ele>249</ele>
        <time>2011-01-01T14:41:52Z</time>
      </trkpt>
      <trkpt lat="43.50903" lon="6.89342">
        <ele>249</ele>
        <time>2011-01-01T14:42:03Z</time>
      </trkpt>
      <trkpt lat="43.5091" lon="6.89338">
        <ele>249</ele>
        <time>2011-01-01T14:42:13Z</time>
      </trkpt>
      <trkpt lat="43.50917" lon="6.89334">
        <ele>249</ele>
        <time>2011-01-01T14:42:23Z</time>
      </trkpt>
      <trkpt lat="43.50924" lon="6.89331">
        <ele>249</ele>
        <time>2011-01-01T14:42:33Z</time>
      </trkpt>
      <trkpt lat="43.50931" lon="6.8933">
        <ele>249</ele>
        <time>2011-01-01T14:42:43Z</time>
      </trkpt>
      <trkpt lat="43.50939" lon="6.8933">
        <ele>249</ele>
        <time>2011-01-01T14:42:53Z</time>
      </trkpt>
      <trkpt lat="43.50946" lon="6.89331">
        <ele>249</ele>
        <time>2011-01-01T14:43:03Z</time>
      </trkpt>
      <trkpt lat="43.50954" lon="6.89333">
        <ele>248</ele>
        <time>2011-01-01T14:43:13Z</time>
      </trkpt>
      <trkpt lat="43.50962" lon="6.89337">
        <ele>247</ele>
        <time>2011-01-01T14:43:23Z</time>
      </trkpt>
      <trkpt lat="43.50968" lon="6.89344">
        <ele>244</ele>
        <time>2011-01-01T14:43:33Z</time>
      </trkpt>
      <trkpt lat="43.50975" lon="6.89349">
        <ele>242</ele>
        <time>2011-01-01T14:43:44Z</time>
      </trkpt>
      <trkpt lat="43.50981" lon="6.89356">
        <ele>241</ele>
        <time>2011-01-01T14:43:55Z</time>
      </trkpt>
      <trkpt lat="43.50986" lon="6.89362">
        <ele>240</ele>
        <time>2011-01-01T14:44:06Z</time>
      </trkpt>
      <trkpt lat="43.50992" lon="6.89369">
        <ele>238</ele>
        <time>2011-01-01T14:44:16Z</time>
      </trkpt>
      <trkpt lat="43.50996" lon="6.89378">
        <ele>237</ele>
        <time>2011-01-01T14:44:27Z</time>
      </trkpt>
      <trkpt lat="43.50994" lon="6.8939">
        <ele>236</ele>
        <time>2011-01-01T14:44:37Z</time>
      </trkpt>
      <trkpt lat="43.5099" lon="6.89399">
        <ele>236</ele>
        <time>2011-01-01T14:44:47Z</time>
      </trkpt>
      <trkpt lat="43.50986" lon="6.89407">
        <ele>235</ele>
        <time>2011-01-01T14:44:57Z</time>
      </trkpt>
      <trkpt lat="43.5098" lon="6.89416">
        <ele>235</ele>
        <time>2011-01-01T14:45:07Z</time>
      </trkpt>
      <trkpt lat="43.50974" lon="6.89424">
        <ele>235</ele>
        <time>2011-01-01T14:45:17Z</time>
      </trkpt>
      <trkpt lat="43.50966" lon="6.89429">
        <ele>235</ele>
        <time>2011-01-01T14:45:27Z</time>
      </trkpt>
      <trkpt lat="43.50957" lon="6.89432">
        <ele>234</ele>
        <time>2011-01-01T14:45:37Z</time>
      </trkpt>
      <trkpt lat="43.5095" lon="6.89433">
        <ele>234</ele>
        <time>2011-01-01T14:45:47Z</time>
      </trkpt>
      <trkpt lat="43.50948" lon="6.89439">
        <ele>232</ele>
        <time>2011-01-01T14:45:58Z</time>
      </trkpt>
      <trkpt lat="43.50956" lon="6.8944">
        <ele>231</ele>
        <time>2011-01-01T14:46:09Z</time>
      </trkpt>
      <trkpt lat="43.50963" lon="6.89439">
        <ele>229</ele>
        <time>2011-01-01T14:46:19Z</time>
      </trkpt>
      <trkpt lat="43.50971" lon="6.89437">
        <ele>227</ele>
        <time>2011-01-01T14:46:29Z</time>
      </trkpt>
      <trkpt lat="43.50977" lon="6.89435">
        <ele>227</ele>
        <time>2011-01-01T14:46:39Z</time>
      </trkpt>
      <trkpt lat="43.50978" lon="6.89434">
        <ele>226</ele>
        <time>2011-01-01T14:46:49Z</time>
      </trkpt>
      <trkpt lat="43.50981" lon="6.89432">
        <ele>226</ele>
        <time>2011-01-01T14:47:07Z</time>
      </trkpt>
      <trkpt lat="43.50988" lon="6.89427">
        <ele>225</ele>
        <time>2011-01-01T14:47:18Z</time>
      </trkpt>
      <trkpt lat="43.50995" lon="6.89422">
        <ele>224</ele>
        <time>2011-01-01T14:47:29Z</time>
      </trkpt>
      <trkpt lat="43.51001" lon="6.89417">
        <ele>223</ele>
        <time>2011-01-01T14:47:39Z</time>
      </trkpt>
      <trkpt lat="43.51009" lon="6.89412">
        <ele>223</ele>
        <time>2011-01-01T14:47:49Z</time>
      </trkpt>
      <trkpt lat="43.51017" lon="6.89408">
        <ele>221</ele>
        <time>2011-01-01T14:47:59Z</time>
      </trkpt>
      <trkpt lat="43.51025" lon="6.89403">
        <ele>219</ele>
        <time>2011-01-01T14:48:09Z</time>
      </trkpt>
      <trkpt lat="43.51033" lon="6.89398">
        <ele>218</ele>
        <time>2011-01-01T14:48:19Z</time>
      </trkpt>
      <trkpt lat="43.51041" lon="6.89395">
        <ele>218</ele>
        <time>2011-01-01T14:48:29Z</time>
      </trkpt>
      <trkpt lat="43.5105" lon="6.89392">
        <ele>218</ele>
        <time>2011-01-01T14:48:39Z</time>
      </trkpt>
      <trkpt lat="43.51058" lon="6.8939">
        <ele>218</ele>
        <time>2011-01-01T14:48:49Z</time>
      </trkpt>
      <trkpt lat="43.51067" lon="6.89386">
        <ele>218</ele>
        <time>2011-01-01T14:48:59Z</time>
      </trkpt>
      <trkpt lat="43.51075" lon="6.89382">
        <ele>218</ele>
        <time>2011-01-01T14:49:09Z</time>
      </trkpt>
      <trkpt lat="43.51084" lon="6.89379">
        <ele>218</ele>
        <time>2011-01-01T14:49:19Z</time>
      </trkpt>
      <trkpt lat="43.51092" lon="6.89378">
        <ele>217</ele>
        <time>2011-01-01T14:49:29Z</time>
      </trkpt>
      <trkpt lat="43.511" lon="6.89377">
        <ele>216</ele>
        <time>2011-01-01T14:49:39Z</time>
      </trkpt>
      <trkpt lat="43.51109" lon="6.89374">
        <ele>214</ele>
        <time>2011-01-01T14:49:49Z</time>
      </trkpt>
      <trkpt lat="43.51118" lon="6.8937">
        <ele>213</ele>
        <time>2011-01-01T14:49:59Z</time>
      </trkpt>
      <trkpt lat="43.51126" lon="6.89367">
        <ele>213</ele>
        <time>2011-01-01T14:50:09Z</time>
      </trkpt>
      <trkpt lat="43.51136" lon="6.89365">
        <ele>212</ele>
        <time>2011-01-01T14:50:19Z</time>
      </trkpt>
      <trkpt lat="43.51145" lon="6.89364">
        <ele>212</ele>
        <time>2011-01-01T14:50:29Z</time>
      </trkpt>
      <trkpt lat="43.51154" lon="6.89365">
        <ele>211</ele>
        <time>2011-01-01T14:50:39Z</time>
      </trkpt>
      <trkpt lat="43.51164" lon="6.89366">
        <ele>210</ele>
        <time>2011-01-01T14:50:49Z</time>
      </trkpt>
      <trkpt lat="43.51175" lon="6.89369">
        <ele>209</ele>
        <time>2011-01-01T14:51:00Z</time>
      </trkpt>
      <trkpt lat="43.51184" lon="6.89371">
        <ele>208</ele>
        <time>2011-01-01T14:51:10Z</time>
      </trkpt>
      <trkpt lat="43.51194" lon="6.89373">
        <ele>207</ele>
        <time>2011-01-01T14:51:20Z</time>
      </trkpt>
      <trkpt lat="43.51202" lon="6.89377">
        <ele>205</ele>
        <time>2011-01-01T14:51:30Z</time>
      </trkpt>
      <trkpt lat="43.5121" lon="6.89385">
        <ele>203</ele>
        <time>2011-01-01T14:51:40Z</time>
      </trkpt>
      <trkpt lat="43.51215" lon="6.89396">
        <ele>200</ele>
        <time>2011-01-01T14:51:50Z</time>
      </trkpt>
      <trkpt lat="43.51219" lon="6.89408">
        <ele>197</ele>
        <time>2011-01-01T14:52:01Z</time>
      </trkpt>
      <trkpt lat="43.51223" lon="6.8942">
        <ele>195</ele>
        <time>2011-01-01T14:52:11Z</time>
      </trkpt>
      <trkpt lat="43.51226" lon="6.89433">
        <ele>194</ele>
        <time>2011-01-01T14:52:21Z</time>
      </trkpt>
      <trkpt lat="43.5123" lon="6.89446">
        <ele>194</ele>
        <time>2011-01-01T14:52:31Z</time>
      </trkpt>
      <trkpt lat="43.51238" lon="6.89455">
        <ele>192</ele>
        <time>2011-01-01T14:52:41Z</time>
      </trkpt>
      <trkpt lat="43.51243" lon="6.89465">
        <ele>189</ele>
        <time>2011-01-01T14:52:51Z</time>
      </trkpt>
      <trkpt lat="43.51252" lon="6.89476">
        <ele>187</ele>
        <time>2011-01-01T14:53:02Z</time>
      </trkpt>
      <trkpt lat="43.51258" lon="6.89485">
        <ele>186</ele>
        <time>2011-01-01T14:53:12Z</time>
      </trkpt>
      <trkpt lat="43.51266" lon="6.89493">
        <ele>186</ele>
        <time>2011-01-01T14:53:22Z</time>
      </trkpt>
      <trkpt lat="43.51275" lon="6.89499">
        <ele>186</ele>
        <time>2011-01-01T14:53:32Z</time>
      </trkpt>
      <trkpt lat="43.51285" lon="6.89502">
        <ele>184</ele>
        <time>2011-01-01T14:53:42Z</time>
      </trkpt>
      <trkpt lat="43.51296" lon="6.89504">
        <ele>184</ele>
        <time>2011-01-01T14:53:54Z</time>
      </trkpt>
      <trkpt lat="43.51302" lon="6.89505">
        <ele>184</ele>
        <time>2011-01-01T14:54:05Z</time>
      </trkpt>
      <trkpt lat="43.51311" lon="6.89505">
        <ele>184</ele>
        <time>2011-01-01T14:54:15Z</time>
      </trkpt>
      <trkpt lat="43.5132" lon="6.89507">
        <ele>184</ele>
        <time>2011-01-01T14:54:25Z</time>
      </trkpt>
      <trkpt lat="43.51331" lon="6.89511">
        <ele>184</ele>
        <time>2011-01-01T14:54:36Z</time>
      </trkpt>
      <trkpt lat="43.5134" lon="6.89515">
        <ele>184</ele>
        <time>2011-01-01T14:54:47Z</time>
      </trkpt>
      <trkpt lat="43.5135" lon="6.89519">
        <ele>184</ele>
        <time>2011-01-01T14:54:57Z</time>
      </trkpt>
      <trkpt lat="43.5136" lon="6.89522">
        <ele>184</ele>
        <time>2011-01-01T14:55:08Z</time>
      </trkpt>
      <trkpt lat="43.51371" lon="6.89525">
        <ele>184</ele>
        <time>2011-01-01T14:55:19Z</time>
      </trkpt>
      <trkpt lat="43.51379" lon="6.89525">
        <ele>184</ele>
        <time>2011-01-01T14:55:29Z</time>
      </trkpt>
      <trkpt lat="43.51387" lon="6.89525">
        <ele>184</ele>
        <time>2011-01-01T14:55:39Z</time>
      </trkpt>
      <trkpt lat="43.51395" lon="6.89526">
        <ele>184</ele>
        <time>2011-01-01T14:55:50Z</time>
      </trkpt>
      <trkpt lat="43.51405" lon="6.89527">
        <ele>184</ele>
        <time>2011-01-01T14:56:00Z</time>
      </trkpt>
      <trkpt lat="43.51414" lon="6.89529">
        <ele>184</ele>
        <time>2011-01-01T14:56:10Z</time>
      </trkpt>
      <trkpt lat="43.51425" lon="6.89532">
        <ele>184</ele>
        <time>2011-01-01T14:56:20Z</time>
      </trkpt>
      <trkpt lat="43.51433" lon="6.89539">
        <ele>183</ele>
        <time>2011-01-01T14:56:30Z</time>
      </trkpt>
      <trkpt lat="43.51442" lon="6.89547">
        <ele>181</ele>
        <time>2011-01-01T14:56:40Z</time>
      </trkpt>
      <trkpt lat="43.5145" lon="6.89557">
        <ele>181</ele>
        <time>2011-01-01T14:56:50Z</time>
      </trkpt>
      <trkpt lat="43.51456" lon="6.89567">
        <ele>181</ele>
        <time>2011-01-01T14:57:00Z</time>
      </trkpt>
      <trkpt lat="43.51461" lon="6.89578">
        <ele>181</ele>
        <time>2011-01-01T14:57:10Z</time>
      </trkpt>
      <trkpt lat="43.51465" lon="6.89589">
        <ele>181</ele>
        <time>2011-01-01T14:57:20Z</time>
      </trkpt>
      <trkpt lat="43.51468" lon="6.896">
        <ele>181</ele>
        <time>2011-01-01T14:57:30Z</time>
      </trkpt>
      <trkpt lat="43.51472" lon="6.8961">
        <ele>181</ele>
        <time>2011-01-01T14:57:40Z</time>
      </trkpt>
      <trkpt lat="43.51479" lon="6.89619">
        <ele>181</ele>
        <time>2011-01-01T14:57:50Z</time>
      </trkpt>
      <trkpt lat="43.51488" lon="6.89625">
        <ele>181</ele>
        <time>2011-01-01T14:58:00Z</time>
      </trkpt>
      <trkpt lat="43.51496" lon="6.89633">
        <ele>181</ele>
        <time>2011-01-01T14:58:10Z</time>
      </trkpt>
      <trkpt lat="43.51503" lon="6.89642">
        <ele>181</ele>
        <time>2011-01-01T14:58:20Z</time>
      </trkpt>
      <trkpt lat="43.5151" lon="6.89652">
        <ele>181</ele>
        <time>2011-01-01T14:58:30Z</time>
      </trkpt>
      <trkpt lat="43.51516" lon="6.89662">
        <ele>181</ele>
        <time>2011-01-01T14:58:40Z</time>
      </trkpt>
      <trkpt lat="43.51522" lon="6.89671">
        <ele>181</ele>
        <time>2011-01-01T14:58:50Z</time>
      </trkpt>
      <trkpt lat="43.51529" lon="6.89679">
        <ele>181</ele>
        <time>2011-01-01T14:59:00Z</time>
      </trkpt>
      <trkpt lat="43.51535" lon="6.89687">
        <ele>181</ele>
        <time>2011-01-01T14:59:10Z</time>
      </trkpt>
      <trkpt lat="43.51542" lon="6.89696">
        <ele>181</ele>
        <time>2011-01-01T14:59:20Z</time>
      </trkpt>
      <trkpt lat="43.51548" lon="6.89705">
        <ele>181</ele>
        <time>2011-01-01T14:59:30Z</time>
      </trkpt>
      <trkpt lat="43.51555" lon="6.89713">
        <ele>181</ele>
        <time>2011-01-01T14:59:40Z</time>
      </trkpt>
      <trkpt lat="43.51561" lon="6.89721">
        <ele>181</ele>
        <time>2011-01-01T14:59:51Z</time>
      </trkpt>
      <trkpt lat="43.51569" lon="6.89726">
        <ele>181</ele>
        <time>2011-01-01T15:00:01Z</time>
      </trkpt>
      <trkpt lat="43.51579" lon="6.89727">
        <ele>181</ele>
        <time>2011-01-01T15:00:13Z</time>
      </trkpt>
      <trkpt lat="43.51589" lon="6.89727">
        <ele>185</ele>
        <time>2011-01-01T15:00:24Z</time>
      </trkpt>
      <trkpt lat="43.516" lon="6.89728">
        <ele>185</ele>
        <time>2011-01-01T15:00:34Z</time>
      </trkpt>
      <trkpt lat="43.51611" lon="6.89728">
        <ele>186</ele>
        <time>2011-01-01T15:00:45Z</time>
      </trkpt>
      <trkpt lat="43.51621" lon="6.89726">
        <ele>186</ele>
        <time>2011-01-01T15:00:55Z</time>
      </trkpt>
      <trkpt lat="43.51631" lon="6.89721">
        <ele>186</ele>
        <time>2011-01-01T15:01:05Z</time>
      </trkpt>
      <trkpt lat="43.5164" lon="6.89717">
        <ele>186</ele>
        <time>2011-01-01T15:01:15Z</time>
      </trkpt>
      <trkpt lat="43.5165" lon="6.89711">
        <ele>186</ele>
        <time>2011-01-01T15:01:25Z</time>
      </trkpt>
      <trkpt lat="43.5166" lon="6.89705">
        <ele>186</ele>
        <time>2011-01-01T15:01:35Z</time>
      </trkpt>
      <trkpt lat="43.5167" lon="6.89695">
        <ele>186</ele>
        <time>2011-01-01T15:01:47Z</time>
      </trkpt>
      <trkpt lat="43.5168" lon="6.89685">
        <ele>186</ele>
        <time>2011-01-01T15:01:58Z</time>
      </trkpt>
      <trkpt lat="43.51689" lon="6.89683">
        <ele>186</ele>
        <time>2011-01-01T15:02:08Z</time>
      </trkpt>
      <trkpt lat="43.51699" lon="6.89683">
        <ele>184</ele>
        <time>2011-01-01T15:02:20Z</time>
      </trkpt>
      <trkpt lat="43.5171" lon="6.89687">
        <ele>183</ele>
        <time>2011-01-01T15:02:30Z</time>
      </trkpt>
      <trkpt lat="43.51717" lon="6.89696">
        <ele>181</ele>
        <time>2011-01-01T15:02:40Z</time>
      </trkpt>
      <trkpt lat="43.51723" lon="6.89707">
        <ele>180</ele>
        <time>2011-01-01T15:02:50Z</time>
      </trkpt>
      <trkpt lat="43.51727" lon="6.89725">
        <ele>178</ele>
        <time>2011-01-01T15:03:01Z</time>
      </trkpt>
      <trkpt lat="43.51727" lon="6.89743">
        <ele>177</ele>
        <time>2011-01-01T15:03:11Z</time>
      </trkpt>
      <trkpt lat="43.51721" lon="6.89759">
        <ele>175</ele>
        <time>2011-01-01T15:03:22Z</time>
      </trkpt>
      <trkpt lat="43.51714" lon="6.89774">
        <ele>174</ele>
        <time>2011-01-01T15:03:34Z</time>
      </trkpt>
      <trkpt lat="43.51707" lon="6.89789">
        <ele>172</ele>
        <time>2011-01-01T15:03:46Z</time>
      </trkpt>
      <trkpt lat="43.51702" lon="6.89803">
        <ele>171</ele>
        <time>2011-01-01T15:03:56Z</time>
      </trkpt>
      <trkpt lat="43.51697" lon="6.89817">
        <ele>171</ele>
        <time>2011-01-01T15:04:06Z</time>
      </trkpt>
      <trkpt lat="43.51692" lon="6.89834">
        <ele>171</ele>
        <time>2011-01-01T15:04:18Z</time>
      </trkpt>
      <trkpt lat="43.51698" lon="6.89836">
        <ele>170</ele>
        <time>2011-01-01T15:04:29Z</time>
      </trkpt>
      <trkpt lat="43.51705" lon="6.89824">
        <ele>170</ele>
        <time>2011-01-01T15:04:40Z</time>
      </trkpt>
      <trkpt lat="43.51711" lon="6.8981">
        <ele>170</ele>
        <time>2011-01-01T15:04:51Z</time>
      </trkpt>
      <trkpt lat="43.51717" lon="6.89797">
        <ele>170</ele>
        <time>2011-01-01T15:05:01Z</time>
      </trkpt>
      <trkpt lat="43.51725" lon="6.89785">
        <ele>170</ele>
        <time>2011-01-01T15:05:12Z</time>
      </trkpt>
      <trkpt lat="43.51735" lon="6.89776">
        <ele>170</ele>
        <time>2011-01-01T15:05:23Z</time>
      </trkpt>
      <trkpt lat="43.51745" lon="6.89771">
        <ele>169</ele>
        <time>2011-01-01T15:05:33Z</time>
      </trkpt>
      <trkpt lat="43.51755" lon="6.89772">
        <ele>166</ele>
        <time>2011-01-01T15:05:43Z</time>
      </trkpt>
      <trkpt lat="43.51768" lon="6.89774">
        <ele>162</ele>
        <time>2011-01-01T15:05:54Z</time>
      </trkpt>
      <trkpt lat="43.5178" lon="6.89779">
        <ele>158</ele>
        <time>2011-01-01T15:06:05Z</time>
      </trkpt>
      <trkpt lat="43.5179" lon="6.89781">
        <ele>157</ele>
        <time>2011-01-01T15:06:16Z</time>
      </trkpt>
      <trkpt lat="43.51796" lon="6.89783">
        <ele>156</ele>
        <time>2011-01-01T15:06:27Z</time>
      </trkpt>
      <trkpt lat="43.51799" lon="6.89792">
        <ele>154</ele>
        <time>2011-01-01T15:06:37Z</time>
      </trkpt>
      <trkpt lat="43.51808" lon="6.89796">
        <ele>153</ele>
        <time>2011-01-01T15:06:47Z</time>
      </trkpt>
      <trkpt lat="43.5182" lon="6.898">
        <ele>151</ele>
        <time>2011-01-01T15:06:59Z</time>
      </trkpt>
      <trkpt lat="43.51822" lon="6.89798">
        <ele>150</ele>
        <time>2011-01-01T15:07:17Z</time>
      </trkpt>
      <trkpt lat="43.51827" lon="6.89792">
        <ele>148</ele>
        <time>2011-01-01T15:07:27Z</time>
      </trkpt>
      <trkpt lat="43.51828" lon="6.89782">
        <ele>148</ele>
        <time>2011-01-01T15:07:37Z</time>
      </trkpt>
      <trkpt lat="43.51831" lon="6.89776">
        <ele>147</ele>
        <time>2011-01-01T15:07:47Z</time>
      </trkpt>
      <trkpt lat="43.51831" lon="6.89777">
        <ele>146</ele>
        <time>2011-01-01T15:08:05Z</time>
      </trkpt>
      <trkpt lat="43.51831" lon="6.89779">
        <ele>146</ele>
        <time>2011-01-01T15:08:19Z</time>
      </trkpt>
      <trkpt lat="43.51833" lon="6.89778">
        <ele>146</ele>
        <time>2011-01-01T15:08:30Z</time>
      </trkpt>
      <trkpt lat="43.51838" lon="6.89781">
        <ele>146</ele>
        <time>2011-01-01T15:08:41Z</time>
      </trkpt>
      <trkpt lat="43.51844" lon="6.89783">
        <ele>146</ele>
        <time>2011-01-01T15:08:52Z</time>
      </trkpt>
      <trkpt lat="43.51853" lon="6.89782">
        <ele>146</ele>
        <time>2011-01-01T15:09:03Z</time>
      </trkpt>
      <trkpt lat="43.51864" lon="6.89783">
        <ele>145</ele>
        <time>2011-01-01T15:09:13Z</time>
      </trkpt>
      <trkpt lat="43.51875" lon="6.89782">
        <ele>144</ele>
        <time>2011-01-01T15:09:23Z</time>
      </trkpt>
      <trkpt lat="43.51887" lon="6.89782">
        <ele>142</ele>
        <time>2011-01-01T15:09:34Z</time>
      </trkpt>
      <trkpt lat="43.51898" lon="6.8978">
        <ele>141</ele>
        <time>2011-01-01T15:09:44Z</time>
      </trkpt>
      <trkpt lat="43.51908" lon="6.89782">
        <ele>139</ele>
        <time>2011-01-01T15:09:54Z</time>
      </trkpt>
      <trkpt lat="43.51915" lon="6.89789">
        <ele>136</ele>
        <time>2011-01-01T15:10:05Z</time>
      </trkpt>
      <trkpt lat="43.51913" lon="6.89793">
        <ele>136</ele>
        <time>2011-01-01T15:10:18Z</time>
      </trkpt>
      <trkpt lat="43.51915" lon="6.898">
        <ele>136</ele>
        <time>2011-01-01T15:10:41Z</time>
      </trkpt>
      <trkpt lat="43.51916" lon="6.8981">
        <ele>136</ele>
        <time>2011-01-01T15:10:53Z</time>
      </trkpt>
      <trkpt lat="43.51915" lon="6.89821">
        <ele>133</ele>
        <time>2011-01-01T15:11:05Z</time>
      </trkpt>
      <trkpt lat="43.51908" lon="6.89833">
        <ele>132</ele>
        <time>2011-01-01T15:11:17Z</time>
      </trkpt>
      <trkpt lat="43.51899" lon="6.89839">
        <ele>130</ele>
        <time>2011-01-01T15:11:29Z</time>
      </trkpt>
      <trkpt lat="43.51901" lon="6.89845">
        <ele>128</ele>
        <time>2011-01-01T15:11:39Z</time>
      </trkpt>
      <trkpt lat="43.51912" lon="6.8984">
        <ele>126</ele>
        <time>2011-01-01T15:11:51Z</time>
      </trkpt>
      <trkpt lat="43.51923" lon="6.89831">
        <ele>126</ele>
        <time>2011-01-01T15:12:03Z</time>
      </trkpt>
      <trkpt lat="43.51933" lon="6.89818">
        <ele>126</ele>
        <time>2011-01-01T15:12:15Z</time>
      </trkpt>
      <trkpt lat="43.51943" lon="6.89805">
        <ele>126</ele>
        <time>2011-01-01T15:12:27Z</time>
      </trkpt>
      <trkpt lat="43.51951" lon="6.89791">
        <ele>125</ele>
        <time>2011-01-01T15:12:38Z</time>
      </trkpt>
      <trkpt lat="43.5196" lon="6.89778">
        <ele>124</ele>
        <time>2011-01-01T15:12:50Z</time>
      </trkpt>
      <trkpt lat="43.5197" lon="6.89765">
        <ele>122</ele>
        <time>2011-01-01T15:13:02Z</time>
      </trkpt>
      <trkpt lat="43.51977" lon="6.89753">
        <ele>121</ele>
        <time>2011-01-01T15:13:12Z</time>
      </trkpt>
      <trkpt lat="43.51978" lon="6.89739">
        <ele>121</ele>
        <time>2011-01-01T15:13:22Z</time>
      </trkpt>
      <trkpt lat="43.51977" lon="6.89723">
        <ele>121</ele>
        <time>2011-01-01T15:13:33Z</time>
      </trkpt>
      <trkpt lat="43.51988" lon="6.89722">
        <ele>119</ele>
        <time>2011-01-01T15:13:43Z</time>
      </trkpt>
      <trkpt lat="43.51996" lon="6.89734">
        <ele>115</ele>
        <time>2011-01-01T15:13:54Z</time>
      </trkpt>
      <trkpt lat="43.52001" lon="6.89748">
        <ele>112</ele>
        <time>2011-01-01T15:14:04Z</time>
      </trkpt>
      <trkpt lat="43.52001" lon="6.89762">
        <ele>110</ele>
        <time>2011-01-01T15:14:14Z</time>
      </trkpt>
      <trkpt lat="43.51998" lon="6.89777">
        <ele>107</ele>
        <time>2011-01-01T15:14:26Z</time>
      </trkpt>
      <trkpt lat="43.52007" lon="6.89778">
        <ele>106</ele>
        <time>2011-01-01T15:14:37Z</time>
      </trkpt>
      <trkpt lat="43.5202" lon="6.89777">
        <ele>106</ele>
        <time>2011-01-01T15:14:48Z</time>
      </trkpt>
      <trkpt lat="43.52031" lon="6.8978">
        <ele>105</ele>
        <time>2011-01-01T15:15:00Z</time>
      </trkpt>
      <trkpt lat="43.52042" lon="6.89783">
        <ele>103</ele>
        <time>2011-01-01T15:15:12Z</time>
      </trkpt>
      <trkpt lat="43.52052" lon="6.89784">
        <ele>102</ele>
        <time>2011-01-01T15:15:22Z</time>
      </trkpt>
      <trkpt lat="43.5206" lon="6.89785">
        <ele>102</ele>
        <time>2011-01-01T15:15:32Z</time>
      </trkpt>
      <trkpt lat="43.52062" lon="6.89785">
        <ele>102</ele>
        <time>2011-01-01T15:15:37Z</time>
      </trkpt>
    </trkseg>
  </trk>
</gpx>